<?xml version="1.0" encoding="UTF-8" standalone="no" ?>
<gpx xmlns="http://www.topografix.com/GPX/1/1" xmlns:xsi="http://www.w3.org/2001/XMLSchema-instance" xsi:schemaLocation="http://www.topografix.com/GPX/1/1 http://www.topografix.com/GPX/1/1/gpx.xsd" version="1.1" creator="VisuGPX - https://www.visugpx.com">
  <metadata>
    <name>Vignacourt_14km</name>
    <desc><![CDATA[Walkmeter Marche 23 déc. 2012 09:15:38]]></desc>
  </metadata>
  <trk>
    <name><![CDATA[Chemins en Somme]]></name>
    <trkseg>
      <trkpt lat="50.01189" lon="2.19705">
        <ele>133.5</ele>
        <time>2012-12-23T08:15:38Z</time>
      </trkpt>
      <trkpt lat="50.01191" lon="2.19711">
        <ele>131.4</ele>
        <time>2012-12-23T08:15:41Z</time>
      </trkpt>
      <trkpt lat="50.01189" lon="2.19732">
        <ele>123.1</ele>
        <time>2012-12-23T08:15:50Z</time>
      </trkpt>
      <trkpt lat="50.01188" lon="2.19754">
        <ele>119.5</ele>
        <time>2012-12-23T08:16:04Z</time>
      </trkpt>
      <trkpt lat="50.01188" lon="2.19776">
        <ele>123.1</ele>
        <time>2012-12-23T08:16:16Z</time>
      </trkpt>
      <trkpt lat="50.01187" lon="2.198">
        <ele>125.5</ele>
        <time>2012-12-23T08:16:27Z</time>
      </trkpt>
      <trkpt lat="50.01186" lon="2.19825">
        <ele>121.9</ele>
        <time>2012-12-23T08:16:39Z</time>
      </trkpt>
      <trkpt lat="50.01185" lon="2.19847">
        <ele>127.2</ele>
        <time>2012-12-23T08:16:51Z</time>
      </trkpt>
      <trkpt lat="50.01183" lon="2.1987">
        <ele>125.5</ele>
        <time>2012-12-23T08:17:03Z</time>
      </trkpt>
      <trkpt lat="50.0118" lon="2.19896">
        <ele>128.8</ele>
        <time>2012-12-23T08:17:16Z</time>
      </trkpt>
      <trkpt lat="50.01179" lon="2.19921">
        <ele>124.1</ele>
        <time>2012-12-23T08:17:27Z</time>
      </trkpt>
      <trkpt lat="50.01179" lon="2.19942">
        <ele>121.7</ele>
        <time>2012-12-23T08:17:38Z</time>
      </trkpt>
      <trkpt lat="50.01176" lon="2.19963">
        <ele>119.6</ele>
        <time>2012-12-23T08:17:49Z</time>
      </trkpt>
      <trkpt lat="50.01175" lon="2.19989">
        <ele>124</ele>
        <time>2012-12-23T08:18:02Z</time>
      </trkpt>
      <trkpt lat="50.01174" lon="2.20011">
        <ele>116.9</ele>
        <time>2012-12-23T08:18:14Z</time>
      </trkpt>
      <trkpt lat="50.01173" lon="2.20038">
        <ele>119.9</ele>
        <time>2012-12-23T08:18:25Z</time>
      </trkpt>
      <trkpt lat="50.01179" lon="2.20055">
        <ele>121.1</ele>
        <time>2012-12-23T08:18:39Z</time>
      </trkpt>
      <trkpt lat="50.01193" lon="2.2006">
        <ele>120.8</ele>
        <time>2012-12-23T08:18:51Z</time>
      </trkpt>
      <trkpt lat="50.01209" lon="2.20066">
        <ele>115.2</ele>
        <time>2012-12-23T08:19:02Z</time>
      </trkpt>
      <trkpt lat="50.01223" lon="2.20074">
        <ele>118.1</ele>
        <time>2012-12-23T08:19:11Z</time>
      </trkpt>
      <trkpt lat="50.01238" lon="2.20077">
        <ele>122.1</ele>
        <time>2012-12-23T08:19:20Z</time>
      </trkpt>
      <trkpt lat="50.01252" lon="2.20077">
        <ele>125.2</ele>
        <time>2012-12-23T08:19:31Z</time>
      </trkpt>
      <trkpt lat="50.01265" lon="2.20081">
        <ele>128.9</ele>
        <time>2012-12-23T08:19:40Z</time>
      </trkpt>
      <trkpt lat="50.01279" lon="2.20086">
        <ele>122.3</ele>
        <time>2012-12-23T08:19:53Z</time>
      </trkpt>
      <trkpt lat="50.01293" lon="2.20088">
        <ele>121.2</ele>
        <time>2012-12-23T08:20:03Z</time>
      </trkpt>
      <trkpt lat="50.01308" lon="2.20092">
        <ele>118.7</ele>
        <time>2012-12-23T08:20:15Z</time>
      </trkpt>
      <trkpt lat="50.01322" lon="2.20093">
        <ele>121</ele>
        <time>2012-12-23T08:20:25Z</time>
      </trkpt>
      <trkpt lat="50.01335" lon="2.20097">
        <ele>120.8</ele>
        <time>2012-12-23T08:20:35Z</time>
      </trkpt>
      <trkpt lat="50.01349" lon="2.20104">
        <ele>118.7</ele>
        <time>2012-12-23T08:20:46Z</time>
      </trkpt>
      <trkpt lat="50.01362" lon="2.20109">
        <ele>121.7</ele>
        <time>2012-12-23T08:20:56Z</time>
      </trkpt>
      <trkpt lat="50.01376" lon="2.20117">
        <ele>120.1</ele>
        <time>2012-12-23T08:21:06Z</time>
      </trkpt>
      <trkpt lat="50.0139" lon="2.20125">
        <ele>117.2</ele>
        <time>2012-12-23T08:21:18Z</time>
      </trkpt>
      <trkpt lat="50.01404" lon="2.20131">
        <ele>119.8</ele>
        <time>2012-12-23T08:21:29Z</time>
      </trkpt>
      <trkpt lat="50.01418" lon="2.20139">
        <ele>115</ele>
        <time>2012-12-23T08:21:40Z</time>
      </trkpt>
      <trkpt lat="50.01431" lon="2.20145">
        <ele>118.6</ele>
        <time>2012-12-23T08:21:49Z</time>
      </trkpt>
      <trkpt lat="50.01443" lon="2.20156">
        <ele>120</ele>
        <time>2012-12-23T08:21:59Z</time>
      </trkpt>
      <trkpt lat="50.01455" lon="2.20166">
        <ele>119.1</ele>
        <time>2012-12-23T08:22:10Z</time>
      </trkpt>
      <trkpt lat="50.01469" lon="2.20176">
        <ele>118.6</ele>
        <time>2012-12-23T08:22:19Z</time>
      </trkpt>
      <trkpt lat="50.01479" lon="2.20192">
        <ele>119</ele>
        <time>2012-12-23T08:22:29Z</time>
      </trkpt>
      <trkpt lat="50.0149" lon="2.20205">
        <ele>121.7</ele>
        <time>2012-12-23T08:22:38Z</time>
      </trkpt>
      <trkpt lat="50.01502" lon="2.20218">
        <ele>125</ele>
        <time>2012-12-23T08:22:48Z</time>
      </trkpt>
      <trkpt lat="50.01512" lon="2.20233">
        <ele>124.8</ele>
        <time>2012-12-23T08:22:58Z</time>
      </trkpt>
      <trkpt lat="50.01522" lon="2.20248">
        <ele>121.7</ele>
        <time>2012-12-23T08:23:10Z</time>
      </trkpt>
      <trkpt lat="50.01534" lon="2.20261">
        <ele>119.8</ele>
        <time>2012-12-23T08:23:22Z</time>
      </trkpt>
      <trkpt lat="50.01543" lon="2.20277">
        <ele>115</ele>
        <time>2012-12-23T08:23:34Z</time>
      </trkpt>
      <trkpt lat="50.01554" lon="2.2029">
        <ele>120.2</ele>
        <time>2012-12-23T08:23:44Z</time>
      </trkpt>
      <trkpt lat="50.01565" lon="2.20305">
        <ele>124.2</ele>
        <time>2012-12-23T08:23:55Z</time>
      </trkpt>
      <trkpt lat="50.01577" lon="2.20315">
        <ele>120</ele>
        <time>2012-12-23T08:24:06Z</time>
      </trkpt>
      <trkpt lat="50.01589" lon="2.20326">
        <ele>119.1</ele>
        <time>2012-12-23T08:24:15Z</time>
      </trkpt>
      <trkpt lat="50.01601" lon="2.2034">
        <ele>119.4</ele>
        <time>2012-12-23T08:24:25Z</time>
      </trkpt>
      <trkpt lat="50.01613" lon="2.20353">
        <ele>123</ele>
        <time>2012-12-23T08:24:37Z</time>
      </trkpt>
      <trkpt lat="50.01622" lon="2.2037">
        <ele>116</ele>
        <time>2012-12-23T08:24:50Z</time>
      </trkpt>
      <trkpt lat="50.01632" lon="2.20387">
        <ele>109.4</ele>
        <time>2012-12-23T08:25:00Z</time>
      </trkpt>
      <trkpt lat="50.01643" lon="2.20403">
        <ele>111.9</ele>
        <time>2012-12-23T08:25:14Z</time>
      </trkpt>
      <trkpt lat="50.01655" lon="2.20423">
        <ele>117.7</ele>
        <time>2012-12-23T08:25:34Z</time>
      </trkpt>
      <trkpt lat="50.01666" lon="2.20437">
        <ele>113.1</ele>
        <time>2012-12-23T08:25:41Z</time>
      </trkpt>
      <trkpt lat="50.01673" lon="2.20458">
        <ele>109.8</ele>
        <time>2012-12-23T08:25:50Z</time>
      </trkpt>
      <trkpt lat="50.01677" lon="2.2048">
        <ele>111.6</ele>
        <time>2012-12-23T08:25:59Z</time>
      </trkpt>
      <trkpt lat="50.01684" lon="2.20503">
        <ele>116.9</ele>
        <time>2012-12-23T08:26:09Z</time>
      </trkpt>
      <trkpt lat="50.01693" lon="2.20521">
        <ele>122.7</ele>
        <time>2012-12-23T08:26:20Z</time>
      </trkpt>
      <trkpt lat="50.017" lon="2.20539">
        <ele>125.4</ele>
        <time>2012-12-23T08:26:30Z</time>
      </trkpt>
      <trkpt lat="50.01706" lon="2.20558">
        <ele>128.9</ele>
        <time>2012-12-23T08:26:39Z</time>
      </trkpt>
      <trkpt lat="50.01707" lon="2.20579">
        <ele>127.4</ele>
        <time>2012-12-23T08:26:51Z</time>
      </trkpt>
      <trkpt lat="50.01713" lon="2.20602">
        <ele>123.8</ele>
        <time>2012-12-23T08:27:02Z</time>
      </trkpt>
      <trkpt lat="50.01718" lon="2.20623">
        <ele>116.2</ele>
        <time>2012-12-23T08:27:12Z</time>
      </trkpt>
      <trkpt lat="50.01724" lon="2.20642">
        <ele>115.9</ele>
        <time>2012-12-23T08:27:22Z</time>
      </trkpt>
      <trkpt lat="50.01729" lon="2.20663">
        <ele>117.3</ele>
        <time>2012-12-23T08:27:32Z</time>
      </trkpt>
      <trkpt lat="50.01732" lon="2.20684">
        <ele>121.8</ele>
        <time>2012-12-23T08:27:42Z</time>
      </trkpt>
      <trkpt lat="50.01736" lon="2.20706">
        <ele>123.9</ele>
        <time>2012-12-23T08:27:53Z</time>
      </trkpt>
      <trkpt lat="50.01744" lon="2.20731">
        <ele>117.3</ele>
        <time>2012-12-23T08:28:03Z</time>
      </trkpt>
      <trkpt lat="50.01748" lon="2.20751">
        <ele>120.4</ele>
        <time>2012-12-23T08:28:16Z</time>
      </trkpt>
      <trkpt lat="50.0175" lon="2.20774">
        <ele>118.2</ele>
        <time>2012-12-23T08:28:27Z</time>
      </trkpt>
      <trkpt lat="50.01747" lon="2.20799">
        <ele>114.6</ele>
        <time>2012-12-23T08:28:36Z</time>
      </trkpt>
      <trkpt lat="50.01748" lon="2.2082">
        <ele>117</ele>
        <time>2012-12-23T08:28:50Z</time>
      </trkpt>
      <trkpt lat="50.01744" lon="2.20842">
        <ele>119.3</ele>
        <time>2012-12-23T08:29:00Z</time>
      </trkpt>
      <trkpt lat="50.01744" lon="2.20863">
        <ele>119.1</ele>
        <time>2012-12-23T08:29:09Z</time>
      </trkpt>
      <trkpt lat="50.01747" lon="2.20886">
        <ele>118.4</ele>
        <time>2012-12-23T08:29:19Z</time>
      </trkpt>
      <trkpt lat="50.0175" lon="2.20916">
        <ele>117.8</ele>
        <time>2012-12-23T08:29:29Z</time>
      </trkpt>
      <trkpt lat="50.01755" lon="2.20943">
        <ele>118.7</ele>
        <time>2012-12-23T08:29:44Z</time>
      </trkpt>
      <trkpt lat="50.01759" lon="2.20964">
        <ele>119.3</ele>
        <time>2012-12-23T08:30:00Z</time>
      </trkpt>
      <trkpt lat="50.0176" lon="2.20986">
        <ele>116</ele>
        <time>2012-12-23T08:30:10Z</time>
      </trkpt>
      <trkpt lat="50.01763" lon="2.2101">
        <ele>118.5</ele>
        <time>2012-12-23T08:30:20Z</time>
      </trkpt>
      <trkpt lat="50.01765" lon="2.21031">
        <ele>120</ele>
        <time>2012-12-23T08:30:30Z</time>
      </trkpt>
      <trkpt lat="50.01768" lon="2.21054">
        <ele>121.4</ele>
        <time>2012-12-23T08:30:40Z</time>
      </trkpt>
      <trkpt lat="50.01769" lon="2.21074">
        <ele>120.5</ele>
        <time>2012-12-23T08:30:50Z</time>
      </trkpt>
      <trkpt lat="50.0177" lon="2.21095">
        <ele>119</ele>
        <time>2012-12-23T08:31:00Z</time>
      </trkpt>
      <trkpt lat="50.01772" lon="2.21117">
        <ele>120.6</ele>
        <time>2012-12-23T08:31:12Z</time>
      </trkpt>
      <trkpt lat="50.01774" lon="2.2114">
        <ele>123.6</ele>
        <time>2012-12-23T08:31:24Z</time>
      </trkpt>
      <trkpt lat="50.01777" lon="2.21162">
        <ele>125.1</ele>
        <time>2012-12-23T08:31:34Z</time>
      </trkpt>
      <trkpt lat="50.01781" lon="2.21184">
        <ele>126.5</ele>
        <time>2012-12-23T08:31:44Z</time>
      </trkpt>
      <trkpt lat="50.01783" lon="2.21206">
        <ele>128.4</ele>
        <time>2012-12-23T08:31:56Z</time>
      </trkpt>
      <trkpt lat="50.01786" lon="2.21227">
        <ele>126.9</ele>
        <time>2012-12-23T08:32:06Z</time>
      </trkpt>
      <trkpt lat="50.0179" lon="2.21249">
        <ele>128.6</ele>
        <time>2012-12-23T08:32:16Z</time>
      </trkpt>
      <trkpt lat="50.01794" lon="2.21269">
        <ele>126.8</ele>
        <time>2012-12-23T08:32:26Z</time>
      </trkpt>
      <trkpt lat="50.01796" lon="2.21291">
        <ele>125</ele>
        <time>2012-12-23T08:32:36Z</time>
      </trkpt>
      <trkpt lat="50.018" lon="2.21316">
        <ele>125.5</ele>
        <time>2012-12-23T08:32:47Z</time>
      </trkpt>
      <trkpt lat="50.01804" lon="2.21337">
        <ele>124.2</ele>
        <time>2012-12-23T08:32:59Z</time>
      </trkpt>
      <trkpt lat="50.0181" lon="2.21358">
        <ele>123.2</ele>
        <time>2012-12-23T08:33:11Z</time>
      </trkpt>
      <trkpt lat="50.01817" lon="2.21376">
        <ele>122.4</ele>
        <time>2012-12-23T08:33:22Z</time>
      </trkpt>
      <trkpt lat="50.01824" lon="2.21395">
        <ele>122.9</ele>
        <time>2012-12-23T08:33:33Z</time>
      </trkpt>
      <trkpt lat="50.01831" lon="2.21413">
        <ele>122.5</ele>
        <time>2012-12-23T08:33:43Z</time>
      </trkpt>
      <trkpt lat="50.01837" lon="2.21433">
        <ele>124.9</ele>
        <time>2012-12-23T08:33:53Z</time>
      </trkpt>
      <trkpt lat="50.01844" lon="2.21451">
        <ele>121.5</ele>
        <time>2012-12-23T08:34:03Z</time>
      </trkpt>
      <trkpt lat="50.01852" lon="2.21469">
        <ele>123.7</ele>
        <time>2012-12-23T08:34:12Z</time>
      </trkpt>
      <trkpt lat="50.01859" lon="2.21487">
        <ele>126.2</ele>
        <time>2012-12-23T08:34:22Z</time>
      </trkpt>
      <trkpt lat="50.01867" lon="2.21504">
        <ele>128.2</ele>
        <time>2012-12-23T08:34:30Z</time>
      </trkpt>
      <trkpt lat="50.01874" lon="2.21524">
        <ele>125.8</ele>
        <time>2012-12-23T08:34:41Z</time>
      </trkpt>
      <trkpt lat="50.01881" lon="2.21542">
        <ele>125.4</ele>
        <time>2012-12-23T08:34:52Z</time>
      </trkpt>
      <trkpt lat="50.01887" lon="2.21562">
        <ele>122.5</ele>
        <time>2012-12-23T08:35:03Z</time>
      </trkpt>
      <trkpt lat="50.01894" lon="2.21582">
        <ele>128</ele>
        <time>2012-12-23T08:35:13Z</time>
      </trkpt>
      <trkpt lat="50.019" lon="2.21601">
        <ele>130.6</ele>
        <time>2012-12-23T08:35:24Z</time>
      </trkpt>
      <trkpt lat="50.01908" lon="2.2162">
        <ele>132.1</ele>
        <time>2012-12-23T08:35:35Z</time>
      </trkpt>
      <trkpt lat="50.01916" lon="2.21638">
        <ele>125.2</ele>
        <time>2012-12-23T08:35:45Z</time>
      </trkpt>
      <trkpt lat="50.01923" lon="2.21657">
        <ele>128.9</ele>
        <time>2012-12-23T08:35:56Z</time>
      </trkpt>
      <trkpt lat="50.01931" lon="2.21674">
        <ele>132.7</ele>
        <time>2012-12-23T08:36:07Z</time>
      </trkpt>
      <trkpt lat="50.0194" lon="2.21692">
        <ele>132.6</ele>
        <time>2012-12-23T08:36:17Z</time>
      </trkpt>
      <trkpt lat="50.01947" lon="2.21711">
        <ele>127.7</ele>
        <time>2012-12-23T08:36:27Z</time>
      </trkpt>
      <trkpt lat="50.01956" lon="2.21728">
        <ele>124.4</ele>
        <time>2012-12-23T08:36:36Z</time>
      </trkpt>
      <trkpt lat="50.01964" lon="2.21748">
        <ele>126</ele>
        <time>2012-12-23T08:36:46Z</time>
      </trkpt>
      <trkpt lat="50.01972" lon="2.21768">
        <ele>130.2</ele>
        <time>2012-12-23T08:36:58Z</time>
      </trkpt>
      <trkpt lat="50.0198" lon="2.21787">
        <ele>128.4</ele>
        <time>2012-12-23T08:37:09Z</time>
      </trkpt>
      <trkpt lat="50.01988" lon="2.21804">
        <ele>123.8</ele>
        <time>2012-12-23T08:37:19Z</time>
      </trkpt>
      <trkpt lat="50.01996" lon="2.21821">
        <ele>128.2</ele>
        <time>2012-12-23T08:37:31Z</time>
      </trkpt>
      <trkpt lat="50.02006" lon="2.21844">
        <ele>131.7</ele>
        <time>2012-12-23T08:37:40Z</time>
      </trkpt>
      <trkpt lat="50.02014" lon="2.21862">
        <ele>129.9</ele>
        <time>2012-12-23T08:37:52Z</time>
      </trkpt>
      <trkpt lat="50.02021" lon="2.2188">
        <ele>128.3</ele>
        <time>2012-12-23T08:38:03Z</time>
      </trkpt>
      <trkpt lat="50.02025" lon="2.219">
        <ele>124.4</ele>
        <time>2012-12-23T08:38:14Z</time>
      </trkpt>
      <trkpt lat="50.02031" lon="2.21922">
        <ele>124.7</ele>
        <time>2012-12-23T08:38:24Z</time>
      </trkpt>
      <trkpt lat="50.02033" lon="2.21943">
        <ele>127</ele>
        <time>2012-12-23T08:38:34Z</time>
      </trkpt>
      <trkpt lat="50.02036" lon="2.21964">
        <ele>128.8</ele>
        <time>2012-12-23T08:38:44Z</time>
      </trkpt>
      <trkpt lat="50.02039" lon="2.21986">
        <ele>127.2</ele>
        <time>2012-12-23T08:38:55Z</time>
      </trkpt>
      <trkpt lat="50.02045" lon="2.22006">
        <ele>126.7</ele>
        <time>2012-12-23T08:39:05Z</time>
      </trkpt>
      <trkpt lat="50.02052" lon="2.22028">
        <ele>129.2</ele>
        <time>2012-12-23T08:39:16Z</time>
      </trkpt>
      <trkpt lat="50.02058" lon="2.22047">
        <ele>123.8</ele>
        <time>2012-12-23T08:39:27Z</time>
      </trkpt>
      <trkpt lat="50.02066" lon="2.22066">
        <ele>125.3</ele>
        <time>2012-12-23T08:39:38Z</time>
      </trkpt>
      <trkpt lat="50.02075" lon="2.22083">
        <ele>127.7</ele>
        <time>2012-12-23T08:39:50Z</time>
      </trkpt>
      <trkpt lat="50.02083" lon="2.22103">
        <ele>132.1</ele>
        <time>2012-12-23T08:40:01Z</time>
      </trkpt>
      <trkpt lat="50.02091" lon="2.22122">
        <ele>129.5</ele>
        <time>2012-12-23T08:40:10Z</time>
      </trkpt>
      <trkpt lat="50.02099" lon="2.22141">
        <ele>125.1</ele>
        <time>2012-12-23T08:40:22Z</time>
      </trkpt>
      <trkpt lat="50.02106" lon="2.2216">
        <ele>128.9</ele>
        <time>2012-12-23T08:40:32Z</time>
      </trkpt>
      <trkpt lat="50.02111" lon="2.22179">
        <ele>117.6</ele>
        <time>2012-12-23T08:40:42Z</time>
      </trkpt>
      <trkpt lat="50.02119" lon="2.22198">
        <ele>121.5</ele>
        <time>2012-12-23T08:40:52Z</time>
      </trkpt>
      <trkpt lat="50.02127" lon="2.2222">
        <ele>125</ele>
        <time>2012-12-23T08:41:04Z</time>
      </trkpt>
      <trkpt lat="50.02133" lon="2.22239">
        <ele>123.5</ele>
        <time>2012-12-23T08:41:14Z</time>
      </trkpt>
      <trkpt lat="50.02142" lon="2.22256">
        <ele>130.6</ele>
        <time>2012-12-23T08:41:26Z</time>
      </trkpt>
      <trkpt lat="50.02154" lon="2.22274">
        <ele>129.1</ele>
        <time>2012-12-23T08:41:36Z</time>
      </trkpt>
      <trkpt lat="50.02166" lon="2.22286">
        <ele>128.3</ele>
        <time>2012-12-23T08:41:49Z</time>
      </trkpt>
      <trkpt lat="50.02178" lon="2.22298">
        <ele>121.7</ele>
        <time>2012-12-23T08:41:59Z</time>
      </trkpt>
      <trkpt lat="50.0219" lon="2.22311">
        <ele>124.5</ele>
        <time>2012-12-23T08:42:09Z</time>
      </trkpt>
      <trkpt lat="50.02202" lon="2.22324">
        <ele>124.3</ele>
        <time>2012-12-23T08:42:18Z</time>
      </trkpt>
      <trkpt lat="50.02215" lon="2.22339">
        <ele>124.1</ele>
        <time>2012-12-23T08:42:31Z</time>
      </trkpt>
      <trkpt lat="50.02226" lon="2.2235">
        <ele>121.7</ele>
        <time>2012-12-23T08:42:43Z</time>
      </trkpt>
      <trkpt lat="50.0224" lon="2.22363">
        <ele>119.3</ele>
        <time>2012-12-23T08:42:54Z</time>
      </trkpt>
      <trkpt lat="50.02252" lon="2.22374">
        <ele>124.1</ele>
        <time>2012-12-23T08:43:05Z</time>
      </trkpt>
      <trkpt lat="50.02264" lon="2.22386">
        <ele>126.4</ele>
        <time>2012-12-23T08:43:14Z</time>
      </trkpt>
      <trkpt lat="50.02277" lon="2.22397">
        <ele>122.4</ele>
        <time>2012-12-23T08:43:25Z</time>
      </trkpt>
      <trkpt lat="50.02288" lon="2.22409">
        <ele>120.3</ele>
        <time>2012-12-23T08:43:38Z</time>
      </trkpt>
      <trkpt lat="50.02304" lon="2.22423">
        <ele>120.5</ele>
        <time>2012-12-23T08:43:47Z</time>
      </trkpt>
      <trkpt lat="50.02316" lon="2.22434">
        <ele>123.9</ele>
        <time>2012-12-23T08:43:59Z</time>
      </trkpt>
      <trkpt lat="50.02328" lon="2.22445">
        <ele>121</ele>
        <time>2012-12-23T08:44:08Z</time>
      </trkpt>
      <trkpt lat="50.0234" lon="2.22456">
        <ele>118</ele>
        <time>2012-12-23T08:44:19Z</time>
      </trkpt>
      <trkpt lat="50.02352" lon="2.22469">
        <ele>120.4</ele>
        <time>2012-12-23T08:44:31Z</time>
      </trkpt>
      <trkpt lat="50.02364" lon="2.22481">
        <ele>122.1</ele>
        <time>2012-12-23T08:44:40Z</time>
      </trkpt>
      <trkpt lat="50.02376" lon="2.22492">
        <ele>122.2</ele>
        <time>2012-12-23T08:44:50Z</time>
      </trkpt>
      <trkpt lat="50.02387" lon="2.22503">
        <ele>125</ele>
        <time>2012-12-23T08:45:01Z</time>
      </trkpt>
      <trkpt lat="50.02401" lon="2.22511">
        <ele>124.6</ele>
        <time>2012-12-23T08:45:11Z</time>
      </trkpt>
      <trkpt lat="50.02414" lon="2.22518">
        <ele>123.9</ele>
        <time>2012-12-23T08:45:21Z</time>
      </trkpt>
      <trkpt lat="50.02427" lon="2.22528">
        <ele>123.7</ele>
        <time>2012-12-23T08:45:33Z</time>
      </trkpt>
      <trkpt lat="50.02441" lon="2.22536">
        <ele>119.3</ele>
        <time>2012-12-23T08:45:43Z</time>
      </trkpt>
      <trkpt lat="50.02454" lon="2.22543">
        <ele>124.3</ele>
        <time>2012-12-23T08:45:52Z</time>
      </trkpt>
      <trkpt lat="50.02467" lon="2.22551">
        <ele>127.9</ele>
        <time>2012-12-23T08:46:02Z</time>
      </trkpt>
      <trkpt lat="50.0248" lon="2.22559">
        <ele>123.4</ele>
        <time>2012-12-23T08:46:12Z</time>
      </trkpt>
      <trkpt lat="50.02494" lon="2.22567">
        <ele>119.7</ele>
        <time>2012-12-23T08:46:24Z</time>
      </trkpt>
      <trkpt lat="50.02507" lon="2.22573">
        <ele>122.1</ele>
        <time>2012-12-23T08:46:35Z</time>
      </trkpt>
      <trkpt lat="50.02521" lon="2.22581">
        <ele>125.4</ele>
        <time>2012-12-23T08:46:45Z</time>
      </trkpt>
      <trkpt lat="50.02534" lon="2.2259">
        <ele>118.9</ele>
        <time>2012-12-23T08:46:56Z</time>
      </trkpt>
      <trkpt lat="50.02547" lon="2.22597">
        <ele>119.6</ele>
        <time>2012-12-23T08:47:07Z</time>
      </trkpt>
      <trkpt lat="50.02561" lon="2.22607">
        <ele>120.1</ele>
        <time>2012-12-23T08:47:18Z</time>
      </trkpt>
      <trkpt lat="50.02574" lon="2.22615">
        <ele>120.4</ele>
        <time>2012-12-23T08:47:26Z</time>
      </trkpt>
      <trkpt lat="50.02587" lon="2.22622">
        <ele>120.6</ele>
        <time>2012-12-23T08:47:35Z</time>
      </trkpt>
      <trkpt lat="50.02601" lon="2.22628">
        <ele>119.2</ele>
        <time>2012-12-23T08:47:45Z</time>
      </trkpt>
      <trkpt lat="50.02614" lon="2.22636">
        <ele>117.1</ele>
        <time>2012-12-23T08:47:58Z</time>
      </trkpt>
      <trkpt lat="50.02628" lon="2.22644">
        <ele>115.8</ele>
        <time>2012-12-23T08:48:09Z</time>
      </trkpt>
      <trkpt lat="50.02642" lon="2.22652">
        <ele>114.7</ele>
        <time>2012-12-23T08:48:18Z</time>
      </trkpt>
      <trkpt lat="50.02655" lon="2.22659">
        <ele>113.1</ele>
        <time>2012-12-23T08:48:31Z</time>
      </trkpt>
      <trkpt lat="50.02669" lon="2.22666">
        <ele>115.3</ele>
        <time>2012-12-23T08:48:42Z</time>
      </trkpt>
      <trkpt lat="50.02682" lon="2.22675">
        <ele>115.7</ele>
        <time>2012-12-23T08:48:52Z</time>
      </trkpt>
      <trkpt lat="50.02695" lon="2.2268">
        <ele>116</ele>
        <time>2012-12-23T08:49:01Z</time>
      </trkpt>
      <trkpt lat="50.02708" lon="2.22687">
        <ele>116</ele>
        <time>2012-12-23T08:49:11Z</time>
      </trkpt>
      <trkpt lat="50.02722" lon="2.22689">
        <ele>111.8</ele>
        <time>2012-12-23T08:49:23Z</time>
      </trkpt>
      <trkpt lat="50.02736" lon="2.2269">
        <ele>109.1</ele>
        <time>2012-12-23T08:49:34Z</time>
      </trkpt>
      <trkpt lat="50.02751" lon="2.22693">
        <ele>108.7</ele>
        <time>2012-12-23T08:49:42Z</time>
      </trkpt>
      <trkpt lat="50.02766" lon="2.22694">
        <ele>109.8</ele>
        <time>2012-12-23T08:49:51Z</time>
      </trkpt>
      <trkpt lat="50.0278" lon="2.22693">
        <ele>106.8</ele>
        <time>2012-12-23T08:50:04Z</time>
      </trkpt>
      <trkpt lat="50.02794" lon="2.22692">
        <ele>106.3</ele>
        <time>2012-12-23T08:50:16Z</time>
      </trkpt>
      <trkpt lat="50.02808" lon="2.22692">
        <ele>104.8</ele>
        <time>2012-12-23T08:50:26Z</time>
      </trkpt>
      <trkpt lat="50.02822" lon="2.22695">
        <ele>103</ele>
        <time>2012-12-23T08:50:37Z</time>
      </trkpt>
      <trkpt lat="50.02837" lon="2.22695">
        <ele>101.5</ele>
        <time>2012-12-23T08:50:47Z</time>
      </trkpt>
      <trkpt lat="50.02851" lon="2.22697">
        <ele>104.2</ele>
        <time>2012-12-23T08:50:56Z</time>
      </trkpt>
      <trkpt lat="50.02865" lon="2.22696">
        <ele>103.8</ele>
        <time>2012-12-23T08:51:06Z</time>
      </trkpt>
      <trkpt lat="50.02879" lon="2.22697">
        <ele>102.4</ele>
        <time>2012-12-23T08:51:16Z</time>
      </trkpt>
      <trkpt lat="50.02892" lon="2.22697">
        <ele>106.2</ele>
        <time>2012-12-23T08:51:26Z</time>
      </trkpt>
      <trkpt lat="50.02907" lon="2.22695">
        <ele>105.2</ele>
        <time>2012-12-23T08:51:36Z</time>
      </trkpt>
      <trkpt lat="50.02922" lon="2.22695">
        <ele>101.8</ele>
        <time>2012-12-23T08:51:47Z</time>
      </trkpt>
      <trkpt lat="50.02936" lon="2.22698">
        <ele>103.8</ele>
        <time>2012-12-23T08:51:57Z</time>
      </trkpt>
      <trkpt lat="50.0295" lon="2.22697">
        <ele>104.6</ele>
        <time>2012-12-23T08:52:07Z</time>
      </trkpt>
      <trkpt lat="50.02964" lon="2.22695">
        <ele>102.8</ele>
        <time>2012-12-23T08:52:17Z</time>
      </trkpt>
      <trkpt lat="50.02978" lon="2.22698">
        <ele>105.7</ele>
        <time>2012-12-23T08:52:28Z</time>
      </trkpt>
      <trkpt lat="50.02993" lon="2.227">
        <ele>102</ele>
        <time>2012-12-23T08:52:38Z</time>
      </trkpt>
      <trkpt lat="50.03006" lon="2.227">
        <ele>104.4</ele>
        <time>2012-12-23T08:52:48Z</time>
      </trkpt>
      <trkpt lat="50.0302" lon="2.22703">
        <ele>102.1</ele>
        <time>2012-12-23T08:53:00Z</time>
      </trkpt>
      <trkpt lat="50.03034" lon="2.22706">
        <ele>99.4</ele>
        <time>2012-12-23T08:53:10Z</time>
      </trkpt>
      <trkpt lat="50.0305" lon="2.22712">
        <ele>95.7</ele>
        <time>2012-12-23T08:53:21Z</time>
      </trkpt>
      <trkpt lat="50.03064" lon="2.22717">
        <ele>100</ele>
        <time>2012-12-23T08:53:31Z</time>
      </trkpt>
      <trkpt lat="50.03077" lon="2.22724">
        <ele>96.1</ele>
        <time>2012-12-23T08:53:42Z</time>
      </trkpt>
      <trkpt lat="50.03089" lon="2.22737">
        <ele>85.9</ele>
        <time>2012-12-23T08:54:01Z</time>
      </trkpt>
      <trkpt lat="50.03104" lon="2.22742">
        <ele>81.3</ele>
        <time>2012-12-23T08:54:12Z</time>
      </trkpt>
      <trkpt lat="50.03119" lon="2.22746">
        <ele>79.2</ele>
        <time>2012-12-23T08:54:22Z</time>
      </trkpt>
      <trkpt lat="50.03133" lon="2.22753">
        <ele>72.9</ele>
        <time>2012-12-23T08:54:38Z</time>
      </trkpt>
      <trkpt lat="50.03144" lon="2.22767">
        <ele>70</ele>
        <time>2012-12-23T08:54:45Z</time>
      </trkpt>
      <trkpt lat="50.03153" lon="2.22784">
        <ele>78</ele>
        <time>2012-12-23T08:54:52Z</time>
      </trkpt>
      <trkpt lat="50.0316" lon="2.22797">
        <ele>80</ele>
        <time>2012-12-23T08:54:58Z</time>
      </trkpt>
      <trkpt lat="50.03175" lon="2.22805">
        <ele>84.1</ele>
        <time>2012-12-23T08:55:10Z</time>
      </trkpt>
      <trkpt lat="50.03188" lon="2.22818">
        <ele>87.5</ele>
        <time>2012-12-23T08:55:20Z</time>
      </trkpt>
      <trkpt lat="50.03201" lon="2.22828">
        <ele>90</ele>
        <time>2012-12-23T08:55:30Z</time>
      </trkpt>
      <trkpt lat="50.03213" lon="2.22843">
        <ele>76</ele>
        <time>2012-12-23T08:55:48Z</time>
      </trkpt>
      <trkpt lat="50.03217" lon="2.2285">
        <ele>78</ele>
        <time>2012-12-23T08:55:53Z</time>
      </trkpt>
      <trkpt lat="50.03222" lon="2.22874">
        <ele>74.3</ele>
        <time>2012-12-23T08:56:04Z</time>
      </trkpt>
      <trkpt lat="50.03235" lon="2.22886">
        <ele>77.3</ele>
        <time>2012-12-23T08:56:09Z</time>
      </trkpt>
      <trkpt lat="50.03246" lon="2.22898">
        <ele>80</ele>
        <time>2012-12-23T08:56:16Z</time>
      </trkpt>
      <trkpt lat="50.03255" lon="2.22913">
        <ele>82.4</ele>
        <time>2012-12-23T08:56:25Z</time>
      </trkpt>
      <trkpt lat="50.03265" lon="2.2293">
        <ele>78.6</ele>
        <time>2012-12-23T08:56:34Z</time>
      </trkpt>
      <trkpt lat="50.03271" lon="2.22949">
        <ele>78.7</ele>
        <time>2012-12-23T08:56:43Z</time>
      </trkpt>
      <trkpt lat="50.03279" lon="2.22967">
        <ele>78.7</ele>
        <time>2012-12-23T08:56:53Z</time>
      </trkpt>
      <trkpt lat="50.03285" lon="2.22986">
        <ele>78.3</ele>
        <time>2012-12-23T08:57:02Z</time>
      </trkpt>
      <trkpt lat="50.03295" lon="2.23002">
        <ele>76.7</ele>
        <time>2012-12-23T08:57:14Z</time>
      </trkpt>
      <trkpt lat="50.03303" lon="2.2302">
        <ele>78.9</ele>
        <time>2012-12-23T08:57:24Z</time>
      </trkpt>
      <trkpt lat="50.03313" lon="2.23038">
        <ele>74.9</ele>
        <time>2012-12-23T08:57:34Z</time>
      </trkpt>
      <trkpt lat="50.03326" lon="2.2305">
        <ele>71.2</ele>
        <time>2012-12-23T08:57:46Z</time>
      </trkpt>
      <trkpt lat="50.03335" lon="2.23066">
        <ele>68.4</ele>
        <time>2012-12-23T08:57:57Z</time>
      </trkpt>
      <trkpt lat="50.03346" lon="2.23082">
        <ele>66.3</ele>
        <time>2012-12-23T08:58:05Z</time>
      </trkpt>
      <trkpt lat="50.03364" lon="2.23107">
        <ele>70.2</ele>
        <time>2012-12-23T08:58:33Z</time>
      </trkpt>
      <trkpt lat="50.03364" lon="2.23107">
        <ele>70.2</ele>
        <time>2012-12-23T09:05:08Z</time>
      </trkpt>
      <trkpt lat="50.03373" lon="2.23117">
        <ele>69</ele>
        <time>2012-12-23T09:05:10Z</time>
      </trkpt>
      <trkpt lat="50.03385" lon="2.23128">
        <ele>63.8</ele>
        <time>2012-12-23T09:05:22Z</time>
      </trkpt>
      <trkpt lat="50.03399" lon="2.23133">
        <ele>59.9</ele>
        <time>2012-12-23T09:05:34Z</time>
      </trkpt>
      <trkpt lat="50.03414" lon="2.2313">
        <ele>65.6</ele>
        <time>2012-12-23T09:05:43Z</time>
      </trkpt>
      <trkpt lat="50.03429" lon="2.2313">
        <ele>67.7</ele>
        <time>2012-12-23T09:05:54Z</time>
      </trkpt>
      <trkpt lat="50.03446" lon="2.23134">
        <ele>68.3</ele>
        <time>2012-12-23T09:06:12Z</time>
      </trkpt>
      <trkpt lat="50.03464" lon="2.23133">
        <ele>61.6</ele>
        <time>2012-12-23T09:06:23Z</time>
      </trkpt>
      <trkpt lat="50.03477" lon="2.23122">
        <ele>67.3</ele>
        <time>2012-12-23T09:06:31Z</time>
      </trkpt>
      <trkpt lat="50.03493" lon="2.23123">
        <ele>66.4</ele>
        <time>2012-12-23T09:06:42Z</time>
      </trkpt>
      <trkpt lat="50.03508" lon="2.2312">
        <ele>73.4</ele>
        <time>2012-12-23T09:06:57Z</time>
      </trkpt>
      <trkpt lat="50.03524" lon="2.23116">
        <ele>76.4</ele>
        <time>2012-12-23T09:07:07Z</time>
      </trkpt>
      <trkpt lat="50.03539" lon="2.23112">
        <ele>81.3</ele>
        <time>2012-12-23T09:07:16Z</time>
      </trkpt>
      <trkpt lat="50.03552" lon="2.23118">
        <ele>79.3</ele>
        <time>2012-12-23T09:07:27Z</time>
      </trkpt>
      <trkpt lat="50.0356" lon="2.23123">
        <ele>75.7</ele>
        <time>2012-12-23T09:07:45Z</time>
      </trkpt>
      <trkpt lat="50.03567" lon="2.23143">
        <ele>65.8</ele>
        <time>2012-12-23T09:08:04Z</time>
      </trkpt>
      <trkpt lat="50.03573" lon="2.23158">
        <ele>69.6</ele>
        <time>2012-12-23T09:08:12Z</time>
      </trkpt>
      <trkpt lat="50.03585" lon="2.23169">
        <ele>73.3</ele>
        <time>2012-12-23T09:08:20Z</time>
      </trkpt>
      <trkpt lat="50.03596" lon="2.23186">
        <ele>77.8</ele>
        <time>2012-12-23T09:08:30Z</time>
      </trkpt>
      <trkpt lat="50.03607" lon="2.23208">
        <ele>67.5</ele>
        <time>2012-12-23T09:08:45Z</time>
      </trkpt>
      <trkpt lat="50.03615" lon="2.23226">
        <ele>65.8</ele>
        <time>2012-12-23T09:08:49Z</time>
      </trkpt>
      <trkpt lat="50.03624" lon="2.23244">
        <ele>68.4</ele>
        <time>2012-12-23T09:09:03Z</time>
      </trkpt>
      <trkpt lat="50.03632" lon="2.23262">
        <ele>72.7</ele>
        <time>2012-12-23T09:09:13Z</time>
      </trkpt>
      <trkpt lat="50.03637" lon="2.23283">
        <ele>76.7</ele>
        <time>2012-12-23T09:09:22Z</time>
      </trkpt>
      <trkpt lat="50.03647" lon="2.23297">
        <ele>80.2</ele>
        <time>2012-12-23T09:09:36Z</time>
      </trkpt>
      <trkpt lat="50.03657" lon="2.23315">
        <ele>79.9</ele>
        <time>2012-12-23T09:09:50Z</time>
      </trkpt>
      <trkpt lat="50.03656" lon="2.23319">
        <ele>78.2</ele>
        <time>2012-12-23T09:09:52Z</time>
      </trkpt>
      <trkpt lat="50.03671" lon="2.23319">
        <ele>69.5</ele>
        <time>2012-12-23T09:10:02Z</time>
      </trkpt>
      <trkpt lat="50.03685" lon="2.23319">
        <ele>64.1</ele>
        <time>2012-12-23T09:10:11Z</time>
      </trkpt>
      <trkpt lat="50.03698" lon="2.23325">
        <ele>65.7</ele>
        <time>2012-12-23T09:10:23Z</time>
      </trkpt>
      <trkpt lat="50.03711" lon="2.2333">
        <ele>65.7</ele>
        <time>2012-12-23T09:10:38Z</time>
      </trkpt>
      <trkpt lat="50.03726" lon="2.23329">
        <ele>66.6</ele>
        <time>2012-12-23T09:10:54Z</time>
      </trkpt>
      <trkpt lat="50.03742" lon="2.23326">
        <ele>65.5</ele>
        <time>2012-12-23T09:11:00Z</time>
      </trkpt>
      <trkpt lat="50.03758" lon="2.23318">
        <ele>66.3</ele>
        <time>2012-12-23T09:11:06Z</time>
      </trkpt>
      <trkpt lat="50.03771" lon="2.23312">
        <ele>69</ele>
        <time>2012-12-23T09:11:15Z</time>
      </trkpt>
      <trkpt lat="50.03785" lon="2.2331">
        <ele>67.6</ele>
        <time>2012-12-23T09:11:25Z</time>
      </trkpt>
      <trkpt lat="50.03799" lon="2.23309">
        <ele>62.1</ele>
        <time>2012-12-23T09:11:36Z</time>
      </trkpt>
      <trkpt lat="50.03806" lon="2.23302">
        <ele>65.3</ele>
        <time>2012-12-23T09:11:44Z</time>
      </trkpt>
      <trkpt lat="50.03807" lon="2.23281">
        <ele>62.8</ele>
        <time>2012-12-23T09:11:59Z</time>
      </trkpt>
      <trkpt lat="50.03803" lon="2.23259">
        <ele>56.8</ele>
        <time>2012-12-23T09:12:12Z</time>
      </trkpt>
      <trkpt lat="50.03793" lon="2.23245">
        <ele>54.6</ele>
        <time>2012-12-23T09:12:21Z</time>
      </trkpt>
      <trkpt lat="50.03788" lon="2.23224">
        <ele>55.9</ele>
        <time>2012-12-23T09:12:32Z</time>
      </trkpt>
      <trkpt lat="50.03789" lon="2.23201">
        <ele>51.7</ele>
        <time>2012-12-23T09:12:43Z</time>
      </trkpt>
      <trkpt lat="50.03793" lon="2.23181">
        <ele>58</ele>
        <time>2012-12-23T09:12:52Z</time>
      </trkpt>
      <trkpt lat="50.03799" lon="2.23161">
        <ele>47.7</ele>
        <time>2012-12-23T09:13:02Z</time>
      </trkpt>
      <trkpt lat="50.03805" lon="2.23141">
        <ele>51.6</ele>
        <time>2012-12-23T09:13:13Z</time>
      </trkpt>
      <trkpt lat="50.03809" lon="2.2312">
        <ele>51.1</ele>
        <time>2012-12-23T09:13:28Z</time>
      </trkpt>
      <trkpt lat="50.03813" lon="2.23079">
        <ele>51.6</ele>
        <time>2012-12-23T09:13:48Z</time>
      </trkpt>
      <trkpt lat="50.03813" lon="2.23079">
        <ele>51.6</ele>
        <time>2012-12-23T09:15:55Z</time>
      </trkpt>
      <trkpt lat="50.03813" lon="2.23059">
        <ele>54.9</ele>
        <time>2012-12-23T09:15:58Z</time>
      </trkpt>
      <trkpt lat="50.03827" lon="2.23056">
        <ele>58.1</ele>
        <time>2012-12-23T09:16:11Z</time>
      </trkpt>
      <trkpt lat="50.03841" lon="2.23062">
        <ele>62.7</ele>
        <time>2012-12-23T09:16:25Z</time>
      </trkpt>
      <trkpt lat="50.03851" lon="2.23077">
        <ele>58.5</ele>
        <time>2012-12-23T09:16:36Z</time>
      </trkpt>
      <trkpt lat="50.03865" lon="2.23085">
        <ele>49.7</ele>
        <time>2012-12-23T09:16:47Z</time>
      </trkpt>
      <trkpt lat="50.03876" lon="2.231">
        <ele>45.4</ele>
        <time>2012-12-23T09:16:59Z</time>
      </trkpt>
      <trkpt lat="50.03886" lon="2.23105">
        <ele>50.1</ele>
        <time>2012-12-23T09:17:10Z</time>
      </trkpt>
      <trkpt lat="50.03892" lon="2.2308">
        <ele>50.8</ele>
        <time>2012-12-23T09:17:24Z</time>
      </trkpt>
      <trkpt lat="50.03893" lon="2.23058">
        <ele>49.6</ele>
        <time>2012-12-23T09:17:37Z</time>
      </trkpt>
      <trkpt lat="50.03896" lon="2.23037">
        <ele>48</ele>
        <time>2012-12-23T09:17:49Z</time>
      </trkpt>
      <trkpt lat="50.03899" lon="2.23016">
        <ele>50.4</ele>
        <time>2012-12-23T09:17:58Z</time>
      </trkpt>
      <trkpt lat="50.03903" lon="2.22989">
        <ele>53.3</ele>
        <time>2012-12-23T09:18:08Z</time>
      </trkpt>
      <trkpt lat="50.0391" lon="2.22969">
        <ele>53.9</ele>
        <time>2012-12-23T09:18:22Z</time>
      </trkpt>
      <trkpt lat="50.03921" lon="2.22954">
        <ele>57.5</ele>
        <time>2012-12-23T09:18:31Z</time>
      </trkpt>
      <trkpt lat="50.03931" lon="2.2294">
        <ele>52.3</ele>
        <time>2012-12-23T09:18:44Z</time>
      </trkpt>
      <trkpt lat="50.03941" lon="2.22925">
        <ele>53.5</ele>
        <time>2012-12-23T09:18:54Z</time>
      </trkpt>
      <trkpt lat="50.03952" lon="2.22912">
        <ele>53.7</ele>
        <time>2012-12-23T09:19:06Z</time>
      </trkpt>
      <trkpt lat="50.03963" lon="2.22896">
        <ele>50.6</ele>
        <time>2012-12-23T09:19:16Z</time>
      </trkpt>
      <trkpt lat="50.03974" lon="2.22882">
        <ele>51</ele>
        <time>2012-12-23T09:19:26Z</time>
      </trkpt>
      <trkpt lat="50.03984" lon="2.22869">
        <ele>49.2</ele>
        <time>2012-12-23T09:19:39Z</time>
      </trkpt>
      <trkpt lat="50.03996" lon="2.22857">
        <ele>49.3</ele>
        <time>2012-12-23T09:19:50Z</time>
      </trkpt>
      <trkpt lat="50.04008" lon="2.22843">
        <ele>49.6</ele>
        <time>2012-12-23T09:20:00Z</time>
      </trkpt>
      <trkpt lat="50.04019" lon="2.22831">
        <ele>45.7</ele>
        <time>2012-12-23T09:20:09Z</time>
      </trkpt>
      <trkpt lat="50.04033" lon="2.22817">
        <ele>45.6</ele>
        <time>2012-12-23T09:20:20Z</time>
      </trkpt>
      <trkpt lat="50.04043" lon="2.22804">
        <ele>48.7</ele>
        <time>2012-12-23T09:20:32Z</time>
      </trkpt>
      <trkpt lat="50.04054" lon="2.22789">
        <ele>49.2</ele>
        <time>2012-12-23T09:20:42Z</time>
      </trkpt>
      <trkpt lat="50.04065" lon="2.22774">
        <ele>54.1</ele>
        <time>2012-12-23T09:20:54Z</time>
      </trkpt>
      <trkpt lat="50.04078" lon="2.22759">
        <ele>50.4</ele>
        <time>2012-12-23T09:21:03Z</time>
      </trkpt>
      <trkpt lat="50.04088" lon="2.22745">
        <ele>47.9</ele>
        <time>2012-12-23T09:21:14Z</time>
      </trkpt>
      <trkpt lat="50.041" lon="2.22735">
        <ele>50.5</ele>
        <time>2012-12-23T09:21:27Z</time>
      </trkpt>
      <trkpt lat="50.0411" lon="2.2272">
        <ele>55.7</ele>
        <time>2012-12-23T09:21:39Z</time>
      </trkpt>
      <trkpt lat="50.04122" lon="2.22705">
        <ele>47.7</ele>
        <time>2012-12-23T09:21:48Z</time>
      </trkpt>
      <trkpt lat="50.04135" lon="2.22687">
        <ele>50.8</ele>
        <time>2012-12-23T09:21:57Z</time>
      </trkpt>
      <trkpt lat="50.04146" lon="2.22672">
        <ele>53.4</ele>
        <time>2012-12-23T09:22:12Z</time>
      </trkpt>
      <trkpt lat="50.04157" lon="2.22656">
        <ele>50.1</ele>
        <time>2012-12-23T09:22:24Z</time>
      </trkpt>
      <trkpt lat="50.04168" lon="2.22644">
        <ele>45.3</ele>
        <time>2012-12-23T09:22:34Z</time>
      </trkpt>
      <trkpt lat="50.04181" lon="2.22634">
        <ele>51.3</ele>
        <time>2012-12-23T09:22:44Z</time>
      </trkpt>
      <trkpt lat="50.04192" lon="2.22619">
        <ele>55</ele>
        <time>2012-12-23T09:22:54Z</time>
      </trkpt>
      <trkpt lat="50.04203" lon="2.22606">
        <ele>51.3</ele>
        <time>2012-12-23T09:23:07Z</time>
      </trkpt>
      <trkpt lat="50.04206" lon="2.22582">
        <ele>47.9</ele>
        <time>2012-12-23T09:23:22Z</time>
      </trkpt>
      <trkpt lat="50.04201" lon="2.22561">
        <ele>52.5</ele>
        <time>2012-12-23T09:23:36Z</time>
      </trkpt>
      <trkpt lat="50.04195" lon="2.22541">
        <ele>46.3</ele>
        <time>2012-12-23T09:23:46Z</time>
      </trkpt>
      <trkpt lat="50.0419" lon="2.22521">
        <ele>43.7</ele>
        <time>2012-12-23T09:23:58Z</time>
      </trkpt>
      <trkpt lat="50.04182" lon="2.22502">
        <ele>45.9</ele>
        <time>2012-12-23T09:24:09Z</time>
      </trkpt>
      <trkpt lat="50.04176" lon="2.22483">
        <ele>47.9</ele>
        <time>2012-12-23T09:24:18Z</time>
      </trkpt>
      <trkpt lat="50.0417" lon="2.2246">
        <ele>45.8</ele>
        <time>2012-12-23T09:24:33Z</time>
      </trkpt>
      <trkpt lat="50.04166" lon="2.22439">
        <ele>45.3</ele>
        <time>2012-12-23T09:24:47Z</time>
      </trkpt>
      <trkpt lat="50.04164" lon="2.22417">
        <ele>49.8</ele>
        <time>2012-12-23T09:24:57Z</time>
      </trkpt>
      <trkpt lat="50.04174" lon="2.224">
        <ele>53.5</ele>
        <time>2012-12-23T09:25:09Z</time>
      </trkpt>
      <trkpt lat="50.04185" lon="2.2239">
        <ele>55.7</ele>
        <time>2012-12-23T09:25:20Z</time>
      </trkpt>
      <trkpt lat="50.04197" lon="2.22378">
        <ele>48.3</ele>
        <time>2012-12-23T09:25:31Z</time>
      </trkpt>
      <trkpt lat="50.0421" lon="2.22368">
        <ele>48.9</ele>
        <time>2012-12-23T09:25:44Z</time>
      </trkpt>
      <trkpt lat="50.04221" lon="2.22355">
        <ele>49.6</ele>
        <time>2012-12-23T09:25:53Z</time>
      </trkpt>
      <trkpt lat="50.0423" lon="2.22338">
        <ele>53</ele>
        <time>2012-12-23T09:26:06Z</time>
      </trkpt>
      <trkpt lat="50.04236" lon="2.22319">
        <ele>49.7</ele>
        <time>2012-12-23T09:26:20Z</time>
      </trkpt>
      <trkpt lat="50.04241" lon="2.22299">
        <ele>52.4</ele>
        <time>2012-12-23T09:26:37Z</time>
      </trkpt>
      <trkpt lat="50.04246" lon="2.22278">
        <ele>57.7</ele>
        <time>2012-12-23T09:26:49Z</time>
      </trkpt>
      <trkpt lat="50.04251" lon="2.22257">
        <ele>49.8</ele>
        <time>2012-12-23T09:27:03Z</time>
      </trkpt>
      <trkpt lat="50.04261" lon="2.22239">
        <ele>50.7</ele>
        <time>2012-12-23T09:27:14Z</time>
      </trkpt>
      <trkpt lat="50.04273" lon="2.22223">
        <ele>54.5</ele>
        <time>2012-12-23T09:27:26Z</time>
      </trkpt>
      <trkpt lat="50.0428" lon="2.22214">
        <ele>55.2</ele>
        <time>2012-12-23T09:27:33Z</time>
      </trkpt>
      <trkpt lat="50.04287" lon="2.22195">
        <ele>55.4</ele>
        <time>2012-12-23T09:27:46Z</time>
      </trkpt>
      <trkpt lat="50.04297" lon="2.22174">
        <ele>56.7</ele>
        <time>2012-12-23T09:28:01Z</time>
      </trkpt>
      <trkpt lat="50.04305" lon="2.22154">
        <ele>59.7</ele>
        <time>2012-12-23T09:28:16Z</time>
      </trkpt>
      <trkpt lat="50.04307" lon="2.22131">
        <ele>62.2</ele>
        <time>2012-12-23T09:28:32Z</time>
      </trkpt>
      <trkpt lat="50.0431" lon="2.2211">
        <ele>64.2</ele>
        <time>2012-12-23T09:28:44Z</time>
      </trkpt>
      <trkpt lat="50.04312" lon="2.22088">
        <ele>59.6</ele>
        <time>2012-12-23T09:28:58Z</time>
      </trkpt>
      <trkpt lat="50.04317" lon="2.22067">
        <ele>65.6</ele>
        <time>2012-12-23T09:29:11Z</time>
      </trkpt>
      <trkpt lat="50.04326" lon="2.22044">
        <ele>69.5</ele>
        <time>2012-12-23T09:29:22Z</time>
      </trkpt>
      <trkpt lat="50.04333" lon="2.22025">
        <ele>68.2</ele>
        <time>2012-12-23T09:29:35Z</time>
      </trkpt>
      <trkpt lat="50.04341" lon="2.22008">
        <ele>68.1</ele>
        <time>2012-12-23T09:29:45Z</time>
      </trkpt>
      <trkpt lat="50.04348" lon="2.2199">
        <ele>65.9</ele>
        <time>2012-12-23T09:29:58Z</time>
      </trkpt>
      <trkpt lat="50.04356" lon="2.21972">
        <ele>68.5</ele>
        <time>2012-12-23T09:30:09Z</time>
      </trkpt>
      <trkpt lat="50.04361" lon="2.21951">
        <ele>66.3</ele>
        <time>2012-12-23T09:30:21Z</time>
      </trkpt>
      <trkpt lat="50.04365" lon="2.21931">
        <ele>70.7</ele>
        <time>2012-12-23T09:30:32Z</time>
      </trkpt>
      <trkpt lat="50.04369" lon="2.2191">
        <ele>71.4</ele>
        <time>2012-12-23T09:30:44Z</time>
      </trkpt>
      <trkpt lat="50.04374" lon="2.2189">
        <ele>71.9</ele>
        <time>2012-12-23T09:30:54Z</time>
      </trkpt>
      <trkpt lat="50.04376" lon="2.21869">
        <ele>72.6</ele>
        <time>2012-12-23T09:31:08Z</time>
      </trkpt>
      <trkpt lat="50.04377" lon="2.21847">
        <ele>73.2</ele>
        <time>2012-12-23T09:31:19Z</time>
      </trkpt>
      <trkpt lat="50.0438" lon="2.21825">
        <ele>73.3</ele>
        <time>2012-12-23T09:31:30Z</time>
      </trkpt>
      <trkpt lat="50.04382" lon="2.21804">
        <ele>71.3</ele>
        <time>2012-12-23T09:31:41Z</time>
      </trkpt>
      <trkpt lat="50.04384" lon="2.21783">
        <ele>69.9</ele>
        <time>2012-12-23T09:31:52Z</time>
      </trkpt>
      <trkpt lat="50.04387" lon="2.21761">
        <ele>71.3</ele>
        <time>2012-12-23T09:32:07Z</time>
      </trkpt>
      <trkpt lat="50.0439" lon="2.2174">
        <ele>72.5</ele>
        <time>2012-12-23T09:32:20Z</time>
      </trkpt>
      <trkpt lat="50.04391" lon="2.21719">
        <ele>69.9</ele>
        <time>2012-12-23T09:32:33Z</time>
      </trkpt>
      <trkpt lat="50.04393" lon="2.21695">
        <ele>72.9</ele>
        <time>2012-12-23T09:32:48Z</time>
      </trkpt>
      <trkpt lat="50.04398" lon="2.21674">
        <ele>73.5</ele>
        <time>2012-12-23T09:33:00Z</time>
      </trkpt>
      <trkpt lat="50.04409" lon="2.21627">
        <ele>74.7</ele>
        <time>2012-12-23T09:33:28Z</time>
      </trkpt>
      <trkpt lat="50.04409" lon="2.21627">
        <ele>74.7</ele>
        <time>2012-12-23T09:37:08Z</time>
      </trkpt>
      <trkpt lat="50.04416" lon="2.21601">
        <ele>74.8</ele>
        <time>2012-12-23T09:37:11Z</time>
      </trkpt>
      <trkpt lat="50.04421" lon="2.21582">
        <ele>72.9</ele>
        <time>2012-12-23T09:37:23Z</time>
      </trkpt>
      <trkpt lat="50.04428" lon="2.21558">
        <ele>73.9</ele>
        <time>2012-12-23T09:37:34Z</time>
      </trkpt>
      <trkpt lat="50.04434" lon="2.21538">
        <ele>76.6</ele>
        <time>2012-12-23T09:37:45Z</time>
      </trkpt>
      <trkpt lat="50.04438" lon="2.21518">
        <ele>75.5</ele>
        <time>2012-12-23T09:37:57Z</time>
      </trkpt>
      <trkpt lat="50.04444" lon="2.21499">
        <ele>74.4</ele>
        <time>2012-12-23T09:38:08Z</time>
      </trkpt>
      <trkpt lat="50.04448" lon="2.21477">
        <ele>73.3</ele>
        <time>2012-12-23T09:38:19Z</time>
      </trkpt>
      <trkpt lat="50.04449" lon="2.21454">
        <ele>72.4</ele>
        <time>2012-12-23T09:38:29Z</time>
      </trkpt>
      <trkpt lat="50.04452" lon="2.21432">
        <ele>74.1</ele>
        <time>2012-12-23T09:38:37Z</time>
      </trkpt>
      <trkpt lat="50.04454" lon="2.2141">
        <ele>78.2</ele>
        <time>2012-12-23T09:38:47Z</time>
      </trkpt>
      <trkpt lat="50.04455" lon="2.21381">
        <ele>75.3</ele>
        <time>2012-12-23T09:38:57Z</time>
      </trkpt>
      <trkpt lat="50.04455" lon="2.2136">
        <ele>72.2</ele>
        <time>2012-12-23T09:39:10Z</time>
      </trkpt>
      <trkpt lat="50.04454" lon="2.21336">
        <ele>70.5</ele>
        <time>2012-12-23T09:39:22Z</time>
      </trkpt>
      <trkpt lat="50.04453" lon="2.21314">
        <ele>70.2</ele>
        <time>2012-12-23T09:39:32Z</time>
      </trkpt>
      <trkpt lat="50.0445" lon="2.21292">
        <ele>72.8</ele>
        <time>2012-12-23T09:39:42Z</time>
      </trkpt>
      <trkpt lat="50.04446" lon="2.2127">
        <ele>72.1</ele>
        <time>2012-12-23T09:39:52Z</time>
      </trkpt>
      <trkpt lat="50.04443" lon="2.21247">
        <ele>68.9</ele>
        <time>2012-12-23T09:40:03Z</time>
      </trkpt>
      <trkpt lat="50.0444" lon="2.21226">
        <ele>67.9</ele>
        <time>2012-12-23T09:40:15Z</time>
      </trkpt>
      <trkpt lat="50.04436" lon="2.21201">
        <ele>67.3</ele>
        <time>2012-12-23T09:40:24Z</time>
      </trkpt>
      <trkpt lat="50.04433" lon="2.21179">
        <ele>69.8</ele>
        <time>2012-12-23T09:40:36Z</time>
      </trkpt>
      <trkpt lat="50.04431" lon="2.21156">
        <ele>71.6</ele>
        <time>2012-12-23T09:40:45Z</time>
      </trkpt>
      <trkpt lat="50.04431" lon="2.21127">
        <ele>71.4</ele>
        <time>2012-12-23T09:40:56Z</time>
      </trkpt>
      <trkpt lat="50.04437" lon="2.21106">
        <ele>70</ele>
        <time>2012-12-23T09:41:09Z</time>
      </trkpt>
      <trkpt lat="50.04444" lon="2.21087">
        <ele>68.8</ele>
        <time>2012-12-23T09:41:20Z</time>
      </trkpt>
      <trkpt lat="50.04452" lon="2.21069">
        <ele>65.7</ele>
        <time>2012-12-23T09:41:30Z</time>
      </trkpt>
      <trkpt lat="50.0446" lon="2.21051">
        <ele>71.6</ele>
        <time>2012-12-23T09:41:40Z</time>
      </trkpt>
      <trkpt lat="50.04469" lon="2.21029">
        <ele>73.3</ele>
        <time>2012-12-23T09:41:50Z</time>
      </trkpt>
      <trkpt lat="50.04477" lon="2.21009">
        <ele>75.7</ele>
        <time>2012-12-23T09:42:04Z</time>
      </trkpt>
      <trkpt lat="50.04482" lon="2.20988">
        <ele>77.5</ele>
        <time>2012-12-23T09:42:14Z</time>
      </trkpt>
      <trkpt lat="50.04485" lon="2.20966">
        <ele>69.3</ele>
        <time>2012-12-23T09:42:24Z</time>
      </trkpt>
      <trkpt lat="50.0449" lon="2.20946">
        <ele>66.9</ele>
        <time>2012-12-23T09:42:35Z</time>
      </trkpt>
      <trkpt lat="50.04498" lon="2.20928">
        <ele>74.2</ele>
        <time>2012-12-23T09:42:45Z</time>
      </trkpt>
      <trkpt lat="50.04504" lon="2.20906">
        <ele>71.7</ele>
        <time>2012-12-23T09:42:55Z</time>
      </trkpt>
      <trkpt lat="50.04508" lon="2.20885">
        <ele>72.9</ele>
        <time>2012-12-23T09:43:05Z</time>
      </trkpt>
      <trkpt lat="50.04515" lon="2.20865">
        <ele>73.7</ele>
        <time>2012-12-23T09:43:15Z</time>
      </trkpt>
      <trkpt lat="50.0452" lon="2.20845">
        <ele>70.2</ele>
        <time>2012-12-23T09:43:26Z</time>
      </trkpt>
      <trkpt lat="50.04523" lon="2.20821">
        <ele>78.1</ele>
        <time>2012-12-23T09:43:36Z</time>
      </trkpt>
      <trkpt lat="50.04526" lon="2.208">
        <ele>75.1</ele>
        <time>2012-12-23T09:43:46Z</time>
      </trkpt>
      <trkpt lat="50.0453" lon="2.20778">
        <ele>75</ele>
        <time>2012-12-23T09:43:56Z</time>
      </trkpt>
      <trkpt lat="50.04536" lon="2.20758">
        <ele>74.3</ele>
        <time>2012-12-23T09:44:07Z</time>
      </trkpt>
      <trkpt lat="50.04542" lon="2.20737">
        <ele>77.9</ele>
        <time>2012-12-23T09:44:18Z</time>
      </trkpt>
      <trkpt lat="50.04547" lon="2.20716">
        <ele>77.8</ele>
        <time>2012-12-23T09:44:28Z</time>
      </trkpt>
      <trkpt lat="50.04554" lon="2.20693">
        <ele>75.7</ele>
        <time>2012-12-23T09:44:38Z</time>
      </trkpt>
      <trkpt lat="50.04561" lon="2.20668">
        <ele>73.2</ele>
        <time>2012-12-23T09:44:50Z</time>
      </trkpt>
      <trkpt lat="50.04564" lon="2.20645">
        <ele>74.9</ele>
        <time>2012-12-23T09:45:02Z</time>
      </trkpt>
      <trkpt lat="50.04568" lon="2.20624">
        <ele>76.2</ele>
        <time>2012-12-23T09:45:11Z</time>
      </trkpt>
      <trkpt lat="50.04571" lon="2.20604">
        <ele>80.9</ele>
        <time>2012-12-23T09:45:19Z</time>
      </trkpt>
      <trkpt lat="50.04575" lon="2.20581">
        <ele>77.1</ele>
        <time>2012-12-23T09:45:30Z</time>
      </trkpt>
      <trkpt lat="50.04576" lon="2.2056">
        <ele>75</ele>
        <time>2012-12-23T09:45:40Z</time>
      </trkpt>
      <trkpt lat="50.04578" lon="2.20539">
        <ele>76.9</ele>
        <time>2012-12-23T09:45:49Z</time>
      </trkpt>
      <trkpt lat="50.04578" lon="2.20517">
        <ele>78.7</ele>
        <time>2012-12-23T09:45:58Z</time>
      </trkpt>
      <trkpt lat="50.04576" lon="2.20494">
        <ele>75</ele>
        <time>2012-12-23T09:46:09Z</time>
      </trkpt>
      <trkpt lat="50.04576" lon="2.20471">
        <ele>73.8</ele>
        <time>2012-12-23T09:46:21Z</time>
      </trkpt>
      <trkpt lat="50.04576" lon="2.20449">
        <ele>72.8</ele>
        <time>2012-12-23T09:46:31Z</time>
      </trkpt>
      <trkpt lat="50.04578" lon="2.20428">
        <ele>70.3</ele>
        <time>2012-12-23T09:46:40Z</time>
      </trkpt>
      <trkpt lat="50.04583" lon="2.20409">
        <ele>68</ele>
        <time>2012-12-23T09:46:50Z</time>
      </trkpt>
      <trkpt lat="50.04593" lon="2.20394">
        <ele>66.3</ele>
        <time>2012-12-23T09:46:59Z</time>
      </trkpt>
      <trkpt lat="50.04604" lon="2.20383">
        <ele>71.4</ele>
        <time>2012-12-23T09:47:09Z</time>
      </trkpt>
      <trkpt lat="50.04617" lon="2.20373">
        <ele>72.4</ele>
        <time>2012-12-23T09:47:20Z</time>
      </trkpt>
      <trkpt lat="50.0463" lon="2.20364">
        <ele>70.1</ele>
        <time>2012-12-23T09:47:30Z</time>
      </trkpt>
      <trkpt lat="50.04644" lon="2.20355">
        <ele>69</ele>
        <time>2012-12-23T09:47:39Z</time>
      </trkpt>
      <trkpt lat="50.04658" lon="2.2035">
        <ele>66.1</ele>
        <time>2012-12-23T09:47:50Z</time>
      </trkpt>
      <trkpt lat="50.04672" lon="2.20348">
        <ele>66.9</ele>
        <time>2012-12-23T09:48:01Z</time>
      </trkpt>
      <trkpt lat="50.04687" lon="2.20346">
        <ele>67.7</ele>
        <time>2012-12-23T09:48:11Z</time>
      </trkpt>
      <trkpt lat="50.04702" lon="2.20343">
        <ele>71.2</ele>
        <time>2012-12-23T09:48:20Z</time>
      </trkpt>
      <trkpt lat="50.04716" lon="2.20343">
        <ele>64.8</ele>
        <time>2012-12-23T09:48:31Z</time>
      </trkpt>
      <trkpt lat="50.04732" lon="2.20341">
        <ele>64</ele>
        <time>2012-12-23T09:48:42Z</time>
      </trkpt>
      <trkpt lat="50.04746" lon="2.20342">
        <ele>60.1</ele>
        <time>2012-12-23T09:48:54Z</time>
      </trkpt>
      <trkpt lat="50.04759" lon="2.20341">
        <ele>62.2</ele>
        <time>2012-12-23T09:49:05Z</time>
      </trkpt>
      <trkpt lat="50.04774" lon="2.20342">
        <ele>55.6</ele>
        <time>2012-12-23T09:49:16Z</time>
      </trkpt>
      <trkpt lat="50.04788" lon="2.2034">
        <ele>55.5</ele>
        <time>2012-12-23T09:49:27Z</time>
      </trkpt>
      <trkpt lat="50.04802" lon="2.20343">
        <ele>51.1</ele>
        <time>2012-12-23T09:49:38Z</time>
      </trkpt>
      <trkpt lat="50.04815" lon="2.20345">
        <ele>52.7</ele>
        <time>2012-12-23T09:49:48Z</time>
      </trkpt>
      <trkpt lat="50.04829" lon="2.20345">
        <ele>53.3</ele>
        <time>2012-12-23T09:49:57Z</time>
      </trkpt>
      <trkpt lat="50.04839" lon="2.20341">
        <ele>43.5</ele>
        <time>2012-12-23T09:50:08Z</time>
      </trkpt>
      <trkpt lat="50.04854" lon="2.20348">
        <ele>44.6</ele>
        <time>2012-12-23T09:50:18Z</time>
      </trkpt>
      <trkpt lat="50.04861" lon="2.20352">
        <ele>48.9</ele>
        <time>2012-12-23T09:50:26Z</time>
      </trkpt>
      <trkpt lat="50.04872" lon="2.20365">
        <ele>47.3</ele>
        <time>2012-12-23T09:50:39Z</time>
      </trkpt>
      <trkpt lat="50.04884" lon="2.20377">
        <ele>40</ele>
        <time>2012-12-23T09:50:51Z</time>
      </trkpt>
      <trkpt lat="50.049" lon="2.20385">
        <ele>33.4</ele>
        <time>2012-12-23T09:51:06Z</time>
      </trkpt>
      <trkpt lat="50.04912" lon="2.20397">
        <ele>35.5</ele>
        <time>2012-12-23T09:51:16Z</time>
      </trkpt>
      <trkpt lat="50.04923" lon="2.2041">
        <ele>37.5</ele>
        <time>2012-12-23T09:51:27Z</time>
      </trkpt>
      <trkpt lat="50.04938" lon="2.2041">
        <ele>40.5</ele>
        <time>2012-12-23T09:51:39Z</time>
      </trkpt>
      <trkpt lat="50.04952" lon="2.20419">
        <ele>35.7</ele>
        <time>2012-12-23T09:51:54Z</time>
      </trkpt>
      <trkpt lat="50.04968" lon="2.2042">
        <ele>35.7</ele>
        <time>2012-12-23T09:52:03Z</time>
      </trkpt>
      <trkpt lat="50.04982" lon="2.20421">
        <ele>33.3</ele>
        <time>2012-12-23T09:52:14Z</time>
      </trkpt>
      <trkpt lat="50.04997" lon="2.20418">
        <ele>37.3</ele>
        <time>2012-12-23T09:52:24Z</time>
      </trkpt>
      <trkpt lat="50.0501" lon="2.20425">
        <ele>35.1</ele>
        <time>2012-12-23T09:52:35Z</time>
      </trkpt>
      <trkpt lat="50.05023" lon="2.2043">
        <ele>38.2</ele>
        <time>2012-12-23T09:52:41Z</time>
      </trkpt>
      <trkpt lat="50.05036" lon="2.20434">
        <ele>38.8</ele>
        <time>2012-12-23T09:52:53Z</time>
      </trkpt>
      <trkpt lat="50.05053" lon="2.20445">
        <ele>31.4</ele>
        <time>2012-12-23T09:53:15Z</time>
      </trkpt>
      <trkpt lat="50.05067" lon="2.20441">
        <ele>34.2</ele>
        <time>2012-12-23T09:53:22Z</time>
      </trkpt>
      <trkpt lat="50.05074" lon="2.20423">
        <ele>38.1</ele>
        <time>2012-12-23T09:53:31Z</time>
      </trkpt>
      <trkpt lat="50.0508" lon="2.20401">
        <ele>40.4</ele>
        <time>2012-12-23T09:53:40Z</time>
      </trkpt>
      <trkpt lat="50.05095" lon="2.20376">
        <ele>36</ele>
        <time>2012-12-23T09:54:03Z</time>
      </trkpt>
      <trkpt lat="50.05095" lon="2.20376">
        <ele>36</ele>
        <time>2012-12-23T10:02:17Z</time>
      </trkpt>
      <trkpt lat="50.05109" lon="2.20373">
        <ele>35</ele>
        <time>2012-12-23T10:02:20Z</time>
      </trkpt>
      <trkpt lat="50.05124" lon="2.2037">
        <ele>32.4</ele>
        <time>2012-12-23T10:02:36Z</time>
      </trkpt>
      <trkpt lat="50.05124" lon="2.2037">
        <ele>32.4</ele>
        <time>2012-12-23T10:03:25Z</time>
      </trkpt>
      <trkpt lat="50.05126" lon="2.20372">
        <ele>33.9</ele>
        <time>2012-12-23T10:03:27Z</time>
      </trkpt>
      <trkpt lat="50.05097" lon="2.20373">
        <ele>36.5</ele>
        <time>2012-12-23T10:03:39Z</time>
      </trkpt>
      <trkpt lat="50.05097" lon="2.20373">
        <ele>36.5</ele>
        <time>2012-12-23T10:12:28Z</time>
      </trkpt>
      <trkpt lat="50.05082" lon="2.20372">
        <ele>37.8</ele>
        <time>2012-12-23T10:12:28Z</time>
      </trkpt>
      <trkpt lat="50.05073" lon="2.20354">
        <ele>38.7</ele>
        <time>2012-12-23T10:12:46Z</time>
      </trkpt>
      <trkpt lat="50.0507" lon="2.20331">
        <ele>32.9</ele>
        <time>2012-12-23T10:12:58Z</time>
      </trkpt>
      <trkpt lat="50.05066" lon="2.20309">
        <ele>36.2</ele>
        <time>2012-12-23T10:13:08Z</time>
      </trkpt>
      <trkpt lat="50.05065" lon="2.20287">
        <ele>29.8</ele>
        <time>2012-12-23T10:13:22Z</time>
      </trkpt>
      <trkpt lat="50.05065" lon="2.20266">
        <ele>27.7</ele>
        <time>2012-12-23T10:13:35Z</time>
      </trkpt>
      <trkpt lat="50.05063" lon="2.20245">
        <ele>31.6</ele>
        <time>2012-12-23T10:13:46Z</time>
      </trkpt>
      <trkpt lat="50.05061" lon="2.20228">
        <ele>33.3</ele>
        <time>2012-12-23T10:13:54Z</time>
      </trkpt>
      <trkpt lat="50.05066" lon="2.20221">
        <ele>34.2</ele>
        <time>2012-12-23T10:14:03Z</time>
      </trkpt>
      <trkpt lat="50.05056" lon="2.20204">
        <ele>31.8</ele>
        <time>2012-12-23T10:14:12Z</time>
      </trkpt>
      <trkpt lat="50.0505" lon="2.20183">
        <ele>30.1</ele>
        <time>2012-12-23T10:14:19Z</time>
      </trkpt>
      <trkpt lat="50.05045" lon="2.20157">
        <ele>32.2</ele>
        <time>2012-12-23T10:14:31Z</time>
      </trkpt>
      <trkpt lat="50.05041" lon="2.20135">
        <ele>37.7</ele>
        <time>2012-12-23T10:14:43Z</time>
      </trkpt>
      <trkpt lat="50.05038" lon="2.20113">
        <ele>34.6</ele>
        <time>2012-12-23T10:14:56Z</time>
      </trkpt>
      <trkpt lat="50.05034" lon="2.20093">
        <ele>33.6</ele>
        <time>2012-12-23T10:15:06Z</time>
      </trkpt>
      <trkpt lat="50.0503" lon="2.20069">
        <ele>34.6</ele>
        <time>2012-12-23T10:15:16Z</time>
      </trkpt>
      <trkpt lat="50.05027" lon="2.20047">
        <ele>40.8</ele>
        <time>2012-12-23T10:15:31Z</time>
      </trkpt>
      <trkpt lat="50.05027" lon="2.20025">
        <ele>31.2</ele>
        <time>2012-12-23T10:15:43Z</time>
      </trkpt>
      <trkpt lat="50.05028" lon="2.20002">
        <ele>34.3</ele>
        <time>2012-12-23T10:15:53Z</time>
      </trkpt>
      <trkpt lat="50.05026" lon="2.19978">
        <ele>34.6</ele>
        <time>2012-12-23T10:16:06Z</time>
      </trkpt>
      <trkpt lat="50.05023" lon="2.19957">
        <ele>36.6</ele>
        <time>2012-12-23T10:16:16Z</time>
      </trkpt>
      <trkpt lat="50.05017" lon="2.19938">
        <ele>39.3</ele>
        <time>2012-12-23T10:16:24Z</time>
      </trkpt>
      <trkpt lat="50.05001" lon="2.19931">
        <ele>40.8</ele>
        <time>2012-12-23T10:16:38Z</time>
      </trkpt>
      <trkpt lat="50.04986" lon="2.19933">
        <ele>37.8</ele>
        <time>2012-12-23T10:16:52Z</time>
      </trkpt>
      <trkpt lat="50.04971" lon="2.19936">
        <ele>38.7</ele>
        <time>2012-12-23T10:17:03Z</time>
      </trkpt>
      <trkpt lat="50.04958" lon="2.19941">
        <ele>38.6</ele>
        <time>2012-12-23T10:17:14Z</time>
      </trkpt>
      <trkpt lat="50.04945" lon="2.19954">
        <ele>39.8</ele>
        <time>2012-12-23T10:17:26Z</time>
      </trkpt>
      <trkpt lat="50.04929" lon="2.19958">
        <ele>41.9</ele>
        <time>2012-12-23T10:17:37Z</time>
      </trkpt>
      <trkpt lat="50.04915" lon="2.19958">
        <ele>44.1</ele>
        <time>2012-12-23T10:17:48Z</time>
      </trkpt>
      <trkpt lat="50.049" lon="2.19957">
        <ele>46.2</ele>
        <time>2012-12-23T10:17:59Z</time>
      </trkpt>
      <trkpt lat="50.04886" lon="2.19958">
        <ele>43.2</ele>
        <time>2012-12-23T10:18:12Z</time>
      </trkpt>
      <trkpt lat="50.04873" lon="2.19952">
        <ele>42</ele>
        <time>2012-12-23T10:18:23Z</time>
      </trkpt>
      <trkpt lat="50.0486" lon="2.19946">
        <ele>41.6</ele>
        <time>2012-12-23T10:18:33Z</time>
      </trkpt>
      <trkpt lat="50.04845" lon="2.19948">
        <ele>33.8</ele>
        <time>2012-12-23T10:18:45Z</time>
      </trkpt>
      <trkpt lat="50.04831" lon="2.19947">
        <ele>27.6</ele>
        <time>2012-12-23T10:19:01Z</time>
      </trkpt>
      <trkpt lat="50.04827" lon="2.19944">
        <ele>29.5</ele>
        <time>2012-12-23T10:19:06Z</time>
      </trkpt>
      <trkpt lat="50.04826" lon="2.19921">
        <ele>34.4</ele>
        <time>2012-12-23T10:19:19Z</time>
      </trkpt>
      <trkpt lat="50.04825" lon="2.19899">
        <ele>37.4</ele>
        <time>2012-12-23T10:19:27Z</time>
      </trkpt>
      <trkpt lat="50.0483" lon="2.19878">
        <ele>41.3</ele>
        <time>2012-12-23T10:19:39Z</time>
      </trkpt>
      <trkpt lat="50.04834" lon="2.19856">
        <ele>42.2</ele>
        <time>2012-12-23T10:19:49Z</time>
      </trkpt>
      <trkpt lat="50.0484" lon="2.19838">
        <ele>43.1</ele>
        <time>2012-12-23T10:20:00Z</time>
      </trkpt>
      <trkpt lat="50.04845" lon="2.19817">
        <ele>41.8</ele>
        <time>2012-12-23T10:20:11Z</time>
      </trkpt>
      <trkpt lat="50.04852" lon="2.19798">
        <ele>37.8</ele>
        <time>2012-12-23T10:20:25Z</time>
      </trkpt>
      <trkpt lat="50.04857" lon="2.19777">
        <ele>31</ele>
        <time>2012-12-23T10:20:37Z</time>
      </trkpt>
      <trkpt lat="50.04862" lon="2.19753">
        <ele>27.4</ele>
        <time>2012-12-23T10:20:49Z</time>
      </trkpt>
      <trkpt lat="50.04866" lon="2.19732">
        <ele>34.4</ele>
        <time>2012-12-23T10:21:02Z</time>
      </trkpt>
      <trkpt lat="50.04873" lon="2.19711">
        <ele>40.1</ele>
        <time>2012-12-23T10:21:15Z</time>
      </trkpt>
      <trkpt lat="50.04879" lon="2.1969">
        <ele>40.3</ele>
        <time>2012-12-23T10:21:27Z</time>
      </trkpt>
      <trkpt lat="50.04884" lon="2.19668">
        <ele>39.5</ele>
        <time>2012-12-23T10:21:39Z</time>
      </trkpt>
      <trkpt lat="50.04886" lon="2.19642">
        <ele>41.1</ele>
        <time>2012-12-23T10:21:51Z</time>
      </trkpt>
      <trkpt lat="50.04889" lon="2.19618">
        <ele>45.4</ele>
        <time>2012-12-23T10:22:04Z</time>
      </trkpt>
      <trkpt lat="50.04892" lon="2.19593">
        <ele>44.9</ele>
        <time>2012-12-23T10:22:15Z</time>
      </trkpt>
      <trkpt lat="50.04895" lon="2.19572">
        <ele>42.3</ele>
        <time>2012-12-23T10:22:28Z</time>
      </trkpt>
      <trkpt lat="50.04901" lon="2.19549">
        <ele>43.8</ele>
        <time>2012-12-23T10:22:42Z</time>
      </trkpt>
      <trkpt lat="50.04907" lon="2.19531">
        <ele>40.2</ele>
        <time>2012-12-23T10:22:51Z</time>
      </trkpt>
      <trkpt lat="50.04908" lon="2.19502">
        <ele>41.6</ele>
        <time>2012-12-23T10:23:04Z</time>
      </trkpt>
      <trkpt lat="50.04909" lon="2.19479">
        <ele>34.5</ele>
        <time>2012-12-23T10:23:14Z</time>
      </trkpt>
      <trkpt lat="50.04912" lon="2.19458">
        <ele>31.1</ele>
        <time>2012-12-23T10:23:21Z</time>
      </trkpt>
      <trkpt lat="50.04912" lon="2.19435">
        <ele>35.2</ele>
        <time>2012-12-23T10:23:34Z</time>
      </trkpt>
      <trkpt lat="50.04913" lon="2.19413">
        <ele>37.5</ele>
        <time>2012-12-23T10:23:42Z</time>
      </trkpt>
      <trkpt lat="50.04914" lon="2.19392">
        <ele>39.7</ele>
        <time>2012-12-23T10:23:50Z</time>
      </trkpt>
      <trkpt lat="50.04918" lon="2.1937">
        <ele>41.3</ele>
        <time>2012-12-23T10:24:00Z</time>
      </trkpt>
      <trkpt lat="50.04927" lon="2.19352">
        <ele>38.9</ele>
        <time>2012-12-23T10:24:11Z</time>
      </trkpt>
      <trkpt lat="50.04934" lon="2.19331">
        <ele>29.6</ele>
        <time>2012-12-23T10:24:22Z</time>
      </trkpt>
      <trkpt lat="50.04943" lon="2.19313">
        <ele>35.2</ele>
        <time>2012-12-23T10:24:36Z</time>
      </trkpt>
      <trkpt lat="50.04947" lon="2.19293">
        <ele>37.4</ele>
        <time>2012-12-23T10:24:45Z</time>
      </trkpt>
      <trkpt lat="50.0495" lon="2.19271">
        <ele>33.9</ele>
        <time>2012-12-23T10:24:53Z</time>
      </trkpt>
      <trkpt lat="50.04952" lon="2.19248">
        <ele>29.8</ele>
        <time>2012-12-23T10:25:03Z</time>
      </trkpt>
      <trkpt lat="50.04952" lon="2.19226">
        <ele>33.1</ele>
        <time>2012-12-23T10:25:15Z</time>
      </trkpt>
      <trkpt lat="50.04954" lon="2.19204">
        <ele>34</ele>
        <time>2012-12-23T10:25:25Z</time>
      </trkpt>
      <trkpt lat="50.04957" lon="2.19182">
        <ele>34.8</ele>
        <time>2012-12-23T10:25:37Z</time>
      </trkpt>
      <trkpt lat="50.04959" lon="2.1916">
        <ele>32.4</ele>
        <time>2012-12-23T10:25:45Z</time>
      </trkpt>
      <trkpt lat="50.04961" lon="2.19138">
        <ele>33.2</ele>
        <time>2012-12-23T10:25:56Z</time>
      </trkpt>
      <trkpt lat="50.04956" lon="2.19106">
        <ele>30.1</ele>
        <time>2012-12-23T10:26:10Z</time>
      </trkpt>
      <trkpt lat="50.04956" lon="2.19106">
        <ele>30.1</ele>
        <time>2012-12-23T10:28:49Z</time>
      </trkpt>
      <trkpt lat="50.04949" lon="2.19096">
        <ele>30</ele>
        <time>2012-12-23T10:28:49Z</time>
      </trkpt>
      <trkpt lat="50.04937" lon="2.19085">
        <ele>33.9</ele>
        <time>2012-12-23T10:29:00Z</time>
      </trkpt>
      <trkpt lat="50.04925" lon="2.19075">
        <ele>34.5</ele>
        <time>2012-12-23T10:29:11Z</time>
      </trkpt>
      <trkpt lat="50.04914" lon="2.19064">
        <ele>32.5</ele>
        <time>2012-12-23T10:29:22Z</time>
      </trkpt>
      <trkpt lat="50.04901" lon="2.19054">
        <ele>33.4</ele>
        <time>2012-12-23T10:29:33Z</time>
      </trkpt>
      <trkpt lat="50.04888" lon="2.19044">
        <ele>34.2</ele>
        <time>2012-12-23T10:29:42Z</time>
      </trkpt>
      <trkpt lat="50.04873" lon="2.19033">
        <ele>36.5</ele>
        <time>2012-12-23T10:29:53Z</time>
      </trkpt>
      <trkpt lat="50.0486" lon="2.19026">
        <ele>40</ele>
        <time>2012-12-23T10:30:03Z</time>
      </trkpt>
      <trkpt lat="50.04845" lon="2.1902">
        <ele>32.7</ele>
        <time>2012-12-23T10:30:16Z</time>
      </trkpt>
      <trkpt lat="50.0483" lon="2.19011">
        <ele>29.8</ele>
        <time>2012-12-23T10:30:31Z</time>
      </trkpt>
      <trkpt lat="50.04816" lon="2.19009">
        <ele>36.3</ele>
        <time>2012-12-23T10:30:43Z</time>
      </trkpt>
      <trkpt lat="50.04802" lon="2.19011">
        <ele>32.9</ele>
        <time>2012-12-23T10:30:53Z</time>
      </trkpt>
      <trkpt lat="50.04787" lon="2.19011">
        <ele>31.9</ele>
        <time>2012-12-23T10:31:04Z</time>
      </trkpt>
      <trkpt lat="50.04772" lon="2.19019">
        <ele>32.8</ele>
        <time>2012-12-23T10:31:18Z</time>
      </trkpt>
      <trkpt lat="50.04759" lon="2.19032">
        <ele>34.5</ele>
        <time>2012-12-23T10:31:48Z</time>
      </trkpt>
      <trkpt lat="50.04748" lon="2.19044">
        <ele>40.4</ele>
        <time>2012-12-23T10:31:59Z</time>
      </trkpt>
      <trkpt lat="50.04734" lon="2.19047">
        <ele>43</ele>
        <time>2012-12-23T10:32:11Z</time>
      </trkpt>
      <trkpt lat="50.04717" lon="2.19049">
        <ele>48</ele>
        <time>2012-12-23T10:32:22Z</time>
      </trkpt>
      <trkpt lat="50.04703" lon="2.19055">
        <ele>55</ele>
        <time>2012-12-23T10:32:38Z</time>
      </trkpt>
      <trkpt lat="50.0469" lon="2.19065">
        <ele>52.6</ele>
        <time>2012-12-23T10:32:54Z</time>
      </trkpt>
      <trkpt lat="50.04679" lon="2.19077">
        <ele>54.4</ele>
        <time>2012-12-23T10:33:04Z</time>
      </trkpt>
      <trkpt lat="50.04667" lon="2.1909">
        <ele>55.8</ele>
        <time>2012-12-23T10:33:16Z</time>
      </trkpt>
      <trkpt lat="50.04655" lon="2.19101">
        <ele>51.1</ele>
        <time>2012-12-23T10:33:28Z</time>
      </trkpt>
      <trkpt lat="50.04642" lon="2.19107">
        <ele>55.9</ele>
        <time>2012-12-23T10:33:40Z</time>
      </trkpt>
      <trkpt lat="50.04628" lon="2.19106">
        <ele>57.6</ele>
        <time>2012-12-23T10:33:52Z</time>
      </trkpt>
      <trkpt lat="50.04614" lon="2.19108">
        <ele>58.3</ele>
        <time>2012-12-23T10:34:02Z</time>
      </trkpt>
      <trkpt lat="50.046" lon="2.19111">
        <ele>59</ele>
        <time>2012-12-23T10:34:19Z</time>
      </trkpt>
      <trkpt lat="50.04585" lon="2.19114">
        <ele>62.7</ele>
        <time>2012-12-23T10:34:30Z</time>
      </trkpt>
      <trkpt lat="50.04571" lon="2.19116">
        <ele>63.2</ele>
        <time>2012-12-23T10:34:43Z</time>
      </trkpt>
      <trkpt lat="50.04557" lon="2.19118">
        <ele>59.9</ele>
        <time>2012-12-23T10:34:59Z</time>
      </trkpt>
      <trkpt lat="50.04543" lon="2.19114">
        <ele>64.8</ele>
        <time>2012-12-23T10:35:11Z</time>
      </trkpt>
      <trkpt lat="50.0453" lon="2.1911">
        <ele>60.4</ele>
        <time>2012-12-23T10:35:23Z</time>
      </trkpt>
      <trkpt lat="50.04516" lon="2.19107">
        <ele>61.9</ele>
        <time>2012-12-23T10:35:35Z</time>
      </trkpt>
      <trkpt lat="50.04502" lon="2.19107">
        <ele>63.1</ele>
        <time>2012-12-23T10:35:45Z</time>
      </trkpt>
      <trkpt lat="50.04488" lon="2.19108">
        <ele>64.5</ele>
        <time>2012-12-23T10:35:55Z</time>
      </trkpt>
      <trkpt lat="50.04474" lon="2.19113">
        <ele>66</ele>
        <time>2012-12-23T10:36:06Z</time>
      </trkpt>
      <trkpt lat="50.04461" lon="2.19118">
        <ele>64.2</ele>
        <time>2012-12-23T10:36:17Z</time>
      </trkpt>
      <trkpt lat="50.04446" lon="2.19122">
        <ele>66.7</ele>
        <time>2012-12-23T10:36:28Z</time>
      </trkpt>
      <trkpt lat="50.04432" lon="2.19129">
        <ele>71.8</ele>
        <time>2012-12-23T10:36:46Z</time>
      </trkpt>
      <trkpt lat="50.04417" lon="2.19128">
        <ele>67.5</ele>
        <time>2012-12-23T10:37:01Z</time>
      </trkpt>
      <trkpt lat="50.04403" lon="2.19132">
        <ele>67.5</ele>
        <time>2012-12-23T10:37:14Z</time>
      </trkpt>
      <trkpt lat="50.04389" lon="2.19136">
        <ele>67.3</ele>
        <time>2012-12-23T10:37:26Z</time>
      </trkpt>
      <trkpt lat="50.04375" lon="2.1914">
        <ele>67.1</ele>
        <time>2012-12-23T10:37:37Z</time>
      </trkpt>
      <trkpt lat="50.04361" lon="2.19144">
        <ele>67</ele>
        <time>2012-12-23T10:37:48Z</time>
      </trkpt>
      <trkpt lat="50.04346" lon="2.19147">
        <ele>70.6</ele>
        <time>2012-12-23T10:38:01Z</time>
      </trkpt>
      <trkpt lat="50.04333" lon="2.1915">
        <ele>72.5</ele>
        <time>2012-12-23T10:38:12Z</time>
      </trkpt>
      <trkpt lat="50.0432" lon="2.19152">
        <ele>74.1</ele>
        <time>2012-12-23T10:38:22Z</time>
      </trkpt>
      <trkpt lat="50.04306" lon="2.19156">
        <ele>75.8</ele>
        <time>2012-12-23T10:38:32Z</time>
      </trkpt>
      <trkpt lat="50.04292" lon="2.1916">
        <ele>76</ele>
        <time>2012-12-23T10:38:43Z</time>
      </trkpt>
      <trkpt lat="50.04277" lon="2.19165">
        <ele>72.5</ele>
        <time>2012-12-23T10:38:54Z</time>
      </trkpt>
      <trkpt lat="50.04263" lon="2.1917">
        <ele>69</ele>
        <time>2012-12-23T10:39:06Z</time>
      </trkpt>
      <trkpt lat="50.04248" lon="2.1917">
        <ele>71.6</ele>
        <time>2012-12-23T10:39:20Z</time>
      </trkpt>
      <trkpt lat="50.04234" lon="2.19174">
        <ele>74.5</ele>
        <time>2012-12-23T10:39:32Z</time>
      </trkpt>
      <trkpt lat="50.04221" lon="2.1918">
        <ele>74.5</ele>
        <time>2012-12-23T10:39:55Z</time>
      </trkpt>
      <trkpt lat="50.04206" lon="2.19182">
        <ele>75.4</ele>
        <time>2012-12-23T10:40:04Z</time>
      </trkpt>
      <trkpt lat="50.04191" lon="2.19186">
        <ele>76.6</ele>
        <time>2012-12-23T10:40:16Z</time>
      </trkpt>
      <trkpt lat="50.04177" lon="2.1919">
        <ele>77.9</ele>
        <time>2012-12-23T10:40:27Z</time>
      </trkpt>
      <trkpt lat="50.04162" lon="2.19191">
        <ele>78</ele>
        <time>2012-12-23T10:40:40Z</time>
      </trkpt>
      <trkpt lat="50.04146" lon="2.19197">
        <ele>75.3</ele>
        <time>2012-12-23T10:40:52Z</time>
      </trkpt>
      <trkpt lat="50.04132" lon="2.19199">
        <ele>83.3</ele>
        <time>2012-12-23T10:41:07Z</time>
      </trkpt>
      <trkpt lat="50.04118" lon="2.19202">
        <ele>80.4</ele>
        <time>2012-12-23T10:41:17Z</time>
      </trkpt>
      <trkpt lat="50.04104" lon="2.19204">
        <ele>78.6</ele>
        <time>2012-12-23T10:41:30Z</time>
      </trkpt>
      <trkpt lat="50.0409" lon="2.19211">
        <ele>78.8</ele>
        <time>2012-12-23T10:41:41Z</time>
      </trkpt>
      <trkpt lat="50.04077" lon="2.19214">
        <ele>80.8</ele>
        <time>2012-12-23T10:41:51Z</time>
      </trkpt>
      <trkpt lat="50.04062" lon="2.19219">
        <ele>83</ele>
        <time>2012-12-23T10:42:05Z</time>
      </trkpt>
      <trkpt lat="50.04048" lon="2.1922">
        <ele>87.4</ele>
        <time>2012-12-23T10:42:15Z</time>
      </trkpt>
      <trkpt lat="50.04035" lon="2.19224">
        <ele>88.3</ele>
        <time>2012-12-23T10:42:26Z</time>
      </trkpt>
      <trkpt lat="50.04021" lon="2.19225">
        <ele>85.6</ele>
        <time>2012-12-23T10:42:40Z</time>
      </trkpt>
      <trkpt lat="50.04007" lon="2.19225">
        <ele>87.8</ele>
        <time>2012-12-23T10:42:53Z</time>
      </trkpt>
      <trkpt lat="50.03993" lon="2.19228">
        <ele>84</ele>
        <time>2012-12-23T10:43:06Z</time>
      </trkpt>
      <trkpt lat="50.03978" lon="2.19232">
        <ele>84.7</ele>
        <time>2012-12-23T10:43:17Z</time>
      </trkpt>
      <trkpt lat="50.03964" lon="2.19231">
        <ele>86.2</ele>
        <time>2012-12-23T10:43:28Z</time>
      </trkpt>
      <trkpt lat="50.0395" lon="2.1923">
        <ele>84.4</ele>
        <time>2012-12-23T10:43:40Z</time>
      </trkpt>
      <trkpt lat="50.03933" lon="2.1923">
        <ele>81.4</ele>
        <time>2012-12-23T10:43:54Z</time>
      </trkpt>
      <trkpt lat="50.03919" lon="2.19228">
        <ele>85</ele>
        <time>2012-12-23T10:44:05Z</time>
      </trkpt>
      <trkpt lat="50.03905" lon="2.19224">
        <ele>83.4</ele>
        <time>2012-12-23T10:44:16Z</time>
      </trkpt>
      <trkpt lat="50.03891" lon="2.19223">
        <ele>88.9</ele>
        <time>2012-12-23T10:44:28Z</time>
      </trkpt>
      <trkpt lat="50.03877" lon="2.19219">
        <ele>93.2</ele>
        <time>2012-12-23T10:44:38Z</time>
      </trkpt>
      <trkpt lat="50.03863" lon="2.19217">
        <ele>93.2</ele>
        <time>2012-12-23T10:44:49Z</time>
      </trkpt>
      <trkpt lat="50.0385" lon="2.19213">
        <ele>98.1</ele>
        <time>2012-12-23T10:45:00Z</time>
      </trkpt>
      <trkpt lat="50.03835" lon="2.1921">
        <ele>97.6</ele>
        <time>2012-12-23T10:45:11Z</time>
      </trkpt>
      <trkpt lat="50.03822" lon="2.19208">
        <ele>96</ele>
        <time>2012-12-23T10:45:24Z</time>
      </trkpt>
      <trkpt lat="50.03808" lon="2.19204">
        <ele>96.6</ele>
        <time>2012-12-23T10:45:37Z</time>
      </trkpt>
      <trkpt lat="50.03794" lon="2.19202">
        <ele>97.3</ele>
        <time>2012-12-23T10:45:48Z</time>
      </trkpt>
      <trkpt lat="50.0378" lon="2.19197">
        <ele>98.2</ele>
        <time>2012-12-23T10:46:02Z</time>
      </trkpt>
      <trkpt lat="50.03766" lon="2.19196">
        <ele>99</ele>
        <time>2012-12-23T10:46:15Z</time>
      </trkpt>
      <trkpt lat="50.03752" lon="2.19198">
        <ele>99.6</ele>
        <time>2012-12-23T10:46:25Z</time>
      </trkpt>
      <trkpt lat="50.03737" lon="2.19195">
        <ele>100.4</ele>
        <time>2012-12-23T10:46:38Z</time>
      </trkpt>
      <trkpt lat="50.03724" lon="2.19193">
        <ele>101</ele>
        <time>2012-12-23T10:46:49Z</time>
      </trkpt>
      <trkpt lat="50.03709" lon="2.1919">
        <ele>101.7</ele>
        <time>2012-12-23T10:47:02Z</time>
      </trkpt>
      <trkpt lat="50.03696" lon="2.19189">
        <ele>100</ele>
        <time>2012-12-23T10:47:16Z</time>
      </trkpt>
      <trkpt lat="50.03681" lon="2.19185">
        <ele>99.8</ele>
        <time>2012-12-23T10:47:25Z</time>
      </trkpt>
      <trkpt lat="50.03667" lon="2.19184">
        <ele>100.7</ele>
        <time>2012-12-23T10:47:35Z</time>
      </trkpt>
      <trkpt lat="50.03653" lon="2.1918">
        <ele>95.9</ele>
        <time>2012-12-23T10:47:45Z</time>
      </trkpt>
      <trkpt lat="50.03639" lon="2.19179">
        <ele>100</ele>
        <time>2012-12-23T10:47:56Z</time>
      </trkpt>
      <trkpt lat="50.03624" lon="2.19183">
        <ele>101.2</ele>
        <time>2012-12-23T10:48:04Z</time>
      </trkpt>
      <trkpt lat="50.0361" lon="2.19184">
        <ele>103</ele>
        <time>2012-12-23T10:48:15Z</time>
      </trkpt>
      <trkpt lat="50.03596" lon="2.19182">
        <ele>101</ele>
        <time>2012-12-23T10:48:25Z</time>
      </trkpt>
      <trkpt lat="50.03582" lon="2.19181">
        <ele>100.5</ele>
        <time>2012-12-23T10:48:35Z</time>
      </trkpt>
      <trkpt lat="50.03568" lon="2.19179">
        <ele>101.1</ele>
        <time>2012-12-23T10:48:44Z</time>
      </trkpt>
      <trkpt lat="50.03555" lon="2.19175">
        <ele>101.9</ele>
        <time>2012-12-23T10:48:54Z</time>
      </trkpt>
      <trkpt lat="50.0354" lon="2.1917">
        <ele>102.7</ele>
        <time>2012-12-23T10:49:05Z</time>
      </trkpt>
      <trkpt lat="50.03526" lon="2.19167">
        <ele>102.3</ele>
        <time>2012-12-23T10:49:16Z</time>
      </trkpt>
      <trkpt lat="50.03512" lon="2.19163">
        <ele>100.8</ele>
        <time>2012-12-23T10:49:29Z</time>
      </trkpt>
      <trkpt lat="50.03496" lon="2.19157">
        <ele>103</ele>
        <time>2012-12-23T10:49:40Z</time>
      </trkpt>
      <trkpt lat="50.03483" lon="2.19152">
        <ele>105.1</ele>
        <time>2012-12-23T10:49:51Z</time>
      </trkpt>
      <trkpt lat="50.03468" lon="2.19144">
        <ele>99.3</ele>
        <time>2012-12-23T10:50:02Z</time>
      </trkpt>
      <trkpt lat="50.03454" lon="2.19143">
        <ele>101.3</ele>
        <time>2012-12-23T10:50:12Z</time>
      </trkpt>
      <trkpt lat="50.0344" lon="2.19141">
        <ele>105</ele>
        <time>2012-12-23T10:50:25Z</time>
      </trkpt>
      <trkpt lat="50.03427" lon="2.19138">
        <ele>103.1</ele>
        <time>2012-12-23T10:50:35Z</time>
      </trkpt>
      <trkpt lat="50.03412" lon="2.19133">
        <ele>106.1</ele>
        <time>2012-12-23T10:50:46Z</time>
      </trkpt>
      <trkpt lat="50.03398" lon="2.19131">
        <ele>107.2</ele>
        <time>2012-12-23T10:50:56Z</time>
      </trkpt>
      <trkpt lat="50.03385" lon="2.1912">
        <ele>102.3</ele>
        <time>2012-12-23T10:51:05Z</time>
      </trkpt>
      <trkpt lat="50.03372" lon="2.19116">
        <ele>99.9</ele>
        <time>2012-12-23T10:51:13Z</time>
      </trkpt>
      <trkpt lat="50.03358" lon="2.19111">
        <ele>104.3</ele>
        <time>2012-12-23T10:51:25Z</time>
      </trkpt>
      <trkpt lat="50.03345" lon="2.19103">
        <ele>105.9</ele>
        <time>2012-12-23T10:51:35Z</time>
      </trkpt>
      <trkpt lat="50.03331" lon="2.19099">
        <ele>108</ele>
        <time>2012-12-23T10:51:48Z</time>
      </trkpt>
      <trkpt lat="50.03317" lon="2.19092">
        <ele>101.1</ele>
        <time>2012-12-23T10:52:02Z</time>
      </trkpt>
      <trkpt lat="50.03304" lon="2.19085">
        <ele>104.5</ele>
        <time>2012-12-23T10:52:14Z</time>
      </trkpt>
      <trkpt lat="50.03289" lon="2.19079">
        <ele>105.7</ele>
        <time>2012-12-23T10:52:26Z</time>
      </trkpt>
      <trkpt lat="50.03276" lon="2.19072">
        <ele>102.7</ele>
        <time>2012-12-23T10:52:37Z</time>
      </trkpt>
      <trkpt lat="50.03262" lon="2.19066">
        <ele>103.8</ele>
        <time>2012-12-23T10:52:49Z</time>
      </trkpt>
      <trkpt lat="50.03248" lon="2.19064">
        <ele>105.4</ele>
        <time>2012-12-23T10:52:58Z</time>
      </trkpt>
      <trkpt lat="50.03234" lon="2.19058">
        <ele>107</ele>
        <time>2012-12-23T10:53:08Z</time>
      </trkpt>
      <trkpt lat="50.03219" lon="2.19055">
        <ele>107.8</ele>
        <time>2012-12-23T10:53:16Z</time>
      </trkpt>
      <trkpt lat="50.03205" lon="2.19049">
        <ele>108.6</ele>
        <time>2012-12-23T10:53:25Z</time>
      </trkpt>
      <trkpt lat="50.03192" lon="2.19044">
        <ele>109.7</ele>
        <time>2012-12-23T10:53:36Z</time>
      </trkpt>
      <trkpt lat="50.03179" lon="2.19038">
        <ele>110.4</ele>
        <time>2012-12-23T10:53:44Z</time>
      </trkpt>
      <trkpt lat="50.03165" lon="2.19033">
        <ele>111.3</ele>
        <time>2012-12-23T10:53:53Z</time>
      </trkpt>
      <trkpt lat="50.03151" lon="2.19027">
        <ele>112.2</ele>
        <time>2012-12-23T10:54:02Z</time>
      </trkpt>
      <trkpt lat="50.03137" lon="2.19021">
        <ele>109.1</ele>
        <time>2012-12-23T10:54:11Z</time>
      </trkpt>
      <trkpt lat="50.03121" lon="2.19013">
        <ele>110.3</ele>
        <time>2012-12-23T10:54:20Z</time>
      </trkpt>
      <trkpt lat="50.03106" lon="2.19008">
        <ele>112</ele>
        <time>2012-12-23T10:54:32Z</time>
      </trkpt>
      <trkpt lat="50.03091" lon="2.19005">
        <ele>113.6</ele>
        <time>2012-12-23T10:54:43Z</time>
      </trkpt>
      <trkpt lat="50.03077" lon="2.19004">
        <ele>113.1</ele>
        <time>2012-12-23T10:55:01Z</time>
      </trkpt>
      <trkpt lat="50.03048" lon="2.19012">
        <ele>111.2</ele>
        <time>2012-12-23T10:55:25Z</time>
      </trkpt>
      <trkpt lat="50.03048" lon="2.19012">
        <ele>111.2</ele>
        <time>2012-12-23T11:03:51Z</time>
      </trkpt>
      <trkpt lat="50.03032" lon="2.19018">
        <ele>114.3</ele>
        <time>2012-12-23T11:03:56Z</time>
      </trkpt>
      <trkpt lat="50.03017" lon="2.19022">
        <ele>113.9</ele>
        <time>2012-12-23T11:04:11Z</time>
      </trkpt>
      <trkpt lat="50.03004" lon="2.19029">
        <ele>115.8</ele>
        <time>2012-12-23T11:04:22Z</time>
      </trkpt>
      <trkpt lat="50.0299" lon="2.19037">
        <ele>116.8</ele>
        <time>2012-12-23T11:04:35Z</time>
      </trkpt>
      <trkpt lat="50.02976" lon="2.19043">
        <ele>116.1</ele>
        <time>2012-12-23T11:04:46Z</time>
      </trkpt>
      <trkpt lat="50.02962" lon="2.19052">
        <ele>115.5</ele>
        <time>2012-12-23T11:04:57Z</time>
      </trkpt>
      <trkpt lat="50.0295" lon="2.1906">
        <ele>114.8</ele>
        <time>2012-12-23T11:05:08Z</time>
      </trkpt>
      <trkpt lat="50.02937" lon="2.19068">
        <ele>114.3</ele>
        <time>2012-12-23T11:05:17Z</time>
      </trkpt>
      <trkpt lat="50.02923" lon="2.1907">
        <ele>114.5</ele>
        <time>2012-12-23T11:05:28Z</time>
      </trkpt>
      <trkpt lat="50.02909" lon="2.19076">
        <ele>117.7</ele>
        <time>2012-12-23T11:05:38Z</time>
      </trkpt>
      <trkpt lat="50.02895" lon="2.19081">
        <ele>118.8</ele>
        <time>2012-12-23T11:05:47Z</time>
      </trkpt>
      <trkpt lat="50.02881" lon="2.19089">
        <ele>120.2</ele>
        <time>2012-12-23T11:05:58Z</time>
      </trkpt>
      <trkpt lat="50.02867" lon="2.19096">
        <ele>121.5</ele>
        <time>2012-12-23T11:06:08Z</time>
      </trkpt>
      <trkpt lat="50.02852" lon="2.19097">
        <ele>122.4</ele>
        <time>2012-12-23T11:06:19Z</time>
      </trkpt>
      <trkpt lat="50.02839" lon="2.19101">
        <ele>119.8</ele>
        <time>2012-12-23T11:06:31Z</time>
      </trkpt>
      <trkpt lat="50.02825" lon="2.19105">
        <ele>117</ele>
        <time>2012-12-23T11:06:43Z</time>
      </trkpt>
      <trkpt lat="50.02811" lon="2.1911">
        <ele>114.9</ele>
        <time>2012-12-23T11:06:53Z</time>
      </trkpt>
      <trkpt lat="50.02796" lon="2.19111">
        <ele>113.8</ele>
        <time>2012-12-23T11:07:03Z</time>
      </trkpt>
      <trkpt lat="50.02783" lon="2.19114">
        <ele>117.5</ele>
        <time>2012-12-23T11:07:12Z</time>
      </trkpt>
      <trkpt lat="50.02768" lon="2.19118">
        <ele>120.6</ele>
        <time>2012-12-23T11:07:21Z</time>
      </trkpt>
      <trkpt lat="50.02752" lon="2.19124">
        <ele>119.4</ele>
        <time>2012-12-23T11:07:30Z</time>
      </trkpt>
      <trkpt lat="50.02738" lon="2.19127">
        <ele>117.8</ele>
        <time>2012-12-23T11:07:42Z</time>
      </trkpt>
      <trkpt lat="50.02725" lon="2.19131">
        <ele>114.1</ele>
        <time>2012-12-23T11:07:53Z</time>
      </trkpt>
      <trkpt lat="50.0271" lon="2.19132">
        <ele>115.7</ele>
        <time>2012-12-23T11:08:03Z</time>
      </trkpt>
      <trkpt lat="50.02697" lon="2.19139">
        <ele>117.3</ele>
        <time>2012-12-23T11:08:12Z</time>
      </trkpt>
      <trkpt lat="50.02683" lon="2.19145">
        <ele>114</ele>
        <time>2012-12-23T11:08:21Z</time>
      </trkpt>
      <trkpt lat="50.02669" lon="2.19155">
        <ele>112.3</ele>
        <time>2012-12-23T11:08:30Z</time>
      </trkpt>
      <trkpt lat="50.02655" lon="2.19157">
        <ele>118.7</ele>
        <time>2012-12-23T11:08:40Z</time>
      </trkpt>
      <trkpt lat="50.0264" lon="2.1916">
        <ele>115</ele>
        <time>2012-12-23T11:08:50Z</time>
      </trkpt>
      <trkpt lat="50.02627" lon="2.19167">
        <ele>111.7</ele>
        <time>2012-12-23T11:09:00Z</time>
      </trkpt>
      <trkpt lat="50.02614" lon="2.19172">
        <ele>108.8</ele>
        <time>2012-12-23T11:09:09Z</time>
      </trkpt>
      <trkpt lat="50.026" lon="2.19177">
        <ele>111.3</ele>
        <time>2012-12-23T11:09:19Z</time>
      </trkpt>
      <trkpt lat="50.02586" lon="2.19184">
        <ele>116.3</ele>
        <time>2012-12-23T11:09:27Z</time>
      </trkpt>
      <trkpt lat="50.02573" lon="2.19193">
        <ele>114.4</ele>
        <time>2012-12-23T11:09:38Z</time>
      </trkpt>
      <trkpt lat="50.0256" lon="2.19204">
        <ele>116</ele>
        <time>2012-12-23T11:09:48Z</time>
      </trkpt>
      <trkpt lat="50.02547" lon="2.19212">
        <ele>118.2</ele>
        <time>2012-12-23T11:09:59Z</time>
      </trkpt>
      <trkpt lat="50.02533" lon="2.19219">
        <ele>120.3</ele>
        <time>2012-12-23T11:10:10Z</time>
      </trkpt>
      <trkpt lat="50.02519" lon="2.19224">
        <ele>115.4</ele>
        <time>2012-12-23T11:10:19Z</time>
      </trkpt>
      <trkpt lat="50.02505" lon="2.19226">
        <ele>111</ele>
        <time>2012-12-23T11:10:32Z</time>
      </trkpt>
      <trkpt lat="50.02491" lon="2.19229">
        <ele>111.6</ele>
        <time>2012-12-23T11:10:42Z</time>
      </trkpt>
      <trkpt lat="50.02477" lon="2.19232">
        <ele>115.8</ele>
        <time>2012-12-23T11:10:52Z</time>
      </trkpt>
      <trkpt lat="50.02462" lon="2.19235">
        <ele>119.2</ele>
        <time>2012-12-23T11:11:02Z</time>
      </trkpt>
      <trkpt lat="50.02447" lon="2.19239">
        <ele>121.7</ele>
        <time>2012-12-23T11:11:13Z</time>
      </trkpt>
      <trkpt lat="50.02432" lon="2.19243">
        <ele>119.7</ele>
        <time>2012-12-23T11:11:23Z</time>
      </trkpt>
      <trkpt lat="50.02419" lon="2.19251">
        <ele>118.8</ele>
        <time>2012-12-23T11:11:33Z</time>
      </trkpt>
      <trkpt lat="50.02406" lon="2.19254">
        <ele>116</ele>
        <time>2012-12-23T11:11:43Z</time>
      </trkpt>
      <trkpt lat="50.02392" lon="2.19253">
        <ele>112.9</ele>
        <time>2012-12-23T11:11:55Z</time>
      </trkpt>
      <trkpt lat="50.02378" lon="2.19251">
        <ele>115.6</ele>
        <time>2012-12-23T11:12:06Z</time>
      </trkpt>
      <trkpt lat="50.02364" lon="2.19246">
        <ele>112.2</ele>
        <time>2012-12-23T11:12:18Z</time>
      </trkpt>
      <trkpt lat="50.0235" lon="2.19238">
        <ele>110.6</ele>
        <time>2012-12-23T11:12:28Z</time>
      </trkpt>
      <trkpt lat="50.02336" lon="2.19234">
        <ele>113.3</ele>
        <time>2012-12-23T11:12:39Z</time>
      </trkpt>
      <trkpt lat="50.02322" lon="2.19224">
        <ele>109.8</ele>
        <time>2012-12-23T11:12:49Z</time>
      </trkpt>
      <trkpt lat="50.02308" lon="2.19219">
        <ele>114.6</ele>
        <time>2012-12-23T11:12:59Z</time>
      </trkpt>
      <trkpt lat="50.02294" lon="2.19213">
        <ele>115.5</ele>
        <time>2012-12-23T11:13:12Z</time>
      </trkpt>
      <trkpt lat="50.02281" lon="2.19209">
        <ele>114.6</ele>
        <time>2012-12-23T11:13:21Z</time>
      </trkpt>
      <trkpt lat="50.02267" lon="2.192">
        <ele>115.9</ele>
        <time>2012-12-23T11:13:29Z</time>
      </trkpt>
      <trkpt lat="50.02254" lon="2.19191">
        <ele>117.7</ele>
        <time>2012-12-23T11:13:40Z</time>
      </trkpt>
      <trkpt lat="50.02239" lon="2.19183">
        <ele>119.5</ele>
        <time>2012-12-23T11:13:51Z</time>
      </trkpt>
      <trkpt lat="50.02226" lon="2.19173">
        <ele>119.1</ele>
        <time>2012-12-23T11:14:04Z</time>
      </trkpt>
      <trkpt lat="50.02212" lon="2.19164">
        <ele>116.4</ele>
        <time>2012-12-23T11:14:17Z</time>
      </trkpt>
      <trkpt lat="50.02199" lon="2.19154">
        <ele>114.1</ele>
        <time>2012-12-23T11:14:29Z</time>
      </trkpt>
      <trkpt lat="50.02186" lon="2.19144">
        <ele>120.3</ele>
        <time>2012-12-23T11:14:40Z</time>
      </trkpt>
      <trkpt lat="50.02173" lon="2.19137">
        <ele>110.2</ele>
        <time>2012-12-23T11:14:53Z</time>
      </trkpt>
      <trkpt lat="50.02159" lon="2.19122">
        <ele>108.5</ele>
        <time>2012-12-23T11:15:07Z</time>
      </trkpt>
      <trkpt lat="50.02146" lon="2.19115">
        <ele>111.6</ele>
        <time>2012-12-23T11:15:13Z</time>
      </trkpt>
      <trkpt lat="50.02131" lon="2.19109">
        <ele>117.1</ele>
        <time>2012-12-23T11:15:24Z</time>
      </trkpt>
      <trkpt lat="50.02117" lon="2.19099">
        <ele>124.2</ele>
        <time>2012-12-23T11:15:38Z</time>
      </trkpt>
      <trkpt lat="50.02104" lon="2.19093">
        <ele>123.7</ele>
        <time>2012-12-23T11:15:50Z</time>
      </trkpt>
      <trkpt lat="50.0209" lon="2.19085">
        <ele>121.6</ele>
        <time>2012-12-23T11:16:02Z</time>
      </trkpt>
      <trkpt lat="50.02077" lon="2.19076">
        <ele>117.1</ele>
        <time>2012-12-23T11:16:13Z</time>
      </trkpt>
      <trkpt lat="50.02064" lon="2.19067">
        <ele>117.1</ele>
        <time>2012-12-23T11:16:24Z</time>
      </trkpt>
      <trkpt lat="50.0205" lon="2.19057">
        <ele>118.1</ele>
        <time>2012-12-23T11:16:38Z</time>
      </trkpt>
      <trkpt lat="50.02039" lon="2.19045">
        <ele>115.9</ele>
        <time>2012-12-23T11:16:50Z</time>
      </trkpt>
      <trkpt lat="50.02027" lon="2.19034">
        <ele>116.9</ele>
        <time>2012-12-23T11:17:01Z</time>
      </trkpt>
      <trkpt lat="50.02015" lon="2.19023">
        <ele>119.4</ele>
        <time>2012-12-23T11:17:09Z</time>
      </trkpt>
      <trkpt lat="50.02001" lon="2.19015">
        <ele>120.2</ele>
        <time>2012-12-23T11:17:18Z</time>
      </trkpt>
      <trkpt lat="50.01989" lon="2.19004">
        <ele>115.4</ele>
        <time>2012-12-23T11:17:32Z</time>
      </trkpt>
      <trkpt lat="50.01972" lon="2.18998">
        <ele>117.4</ele>
        <time>2012-12-23T11:17:40Z</time>
      </trkpt>
      <trkpt lat="50.01958" lon="2.18991">
        <ele>121.3</ele>
        <time>2012-12-23T11:17:52Z</time>
      </trkpt>
      <trkpt lat="50.01947" lon="2.1898">
        <ele>120.5</ele>
        <time>2012-12-23T11:18:08Z</time>
      </trkpt>
      <trkpt lat="50.01933" lon="2.18974">
        <ele>117.8</ele>
        <time>2012-12-23T11:18:17Z</time>
      </trkpt>
      <trkpt lat="50.01919" lon="2.18969">
        <ele>114.7</ele>
        <time>2012-12-23T11:18:25Z</time>
      </trkpt>
      <trkpt lat="50.01908" lon="2.18958">
        <ele>122.8</ele>
        <time>2012-12-23T11:18:39Z</time>
      </trkpt>
      <trkpt lat="50.01895" lon="2.18948">
        <ele>124</ele>
        <time>2012-12-23T11:18:48Z</time>
      </trkpt>
      <trkpt lat="50.01883" lon="2.18937">
        <ele>114</ele>
        <time>2012-12-23T11:18:58Z</time>
      </trkpt>
      <trkpt lat="50.0187" lon="2.18928">
        <ele>114.1</ele>
        <time>2012-12-23T11:19:08Z</time>
      </trkpt>
      <trkpt lat="50.01858" lon="2.18913">
        <ele>114.5</ele>
        <time>2012-12-23T11:19:25Z</time>
      </trkpt>
      <trkpt lat="50.01844" lon="2.18912">
        <ele>118.3</ele>
        <time>2012-12-23T11:19:32Z</time>
      </trkpt>
      <trkpt lat="50.0183" lon="2.18905">
        <ele>121.9</ele>
        <time>2012-12-23T11:19:39Z</time>
      </trkpt>
      <trkpt lat="50.01817" lon="2.18894">
        <ele>124.8</ele>
        <time>2012-12-23T11:19:48Z</time>
      </trkpt>
      <trkpt lat="50.01802" lon="2.18887">
        <ele>125.7</ele>
        <time>2012-12-23T11:19:57Z</time>
      </trkpt>
      <trkpt lat="50.0179" lon="2.18877">
        <ele>124.1</ele>
        <time>2012-12-23T11:20:08Z</time>
      </trkpt>
      <trkpt lat="50.01777" lon="2.1887">
        <ele>125.1</ele>
        <time>2012-12-23T11:20:17Z</time>
      </trkpt>
      <trkpt lat="50.01761" lon="2.18863">
        <ele>126.1</ele>
        <time>2012-12-23T11:20:27Z</time>
      </trkpt>
      <trkpt lat="50.01749" lon="2.18851">
        <ele>123.4</ele>
        <time>2012-12-23T11:20:43Z</time>
      </trkpt>
      <trkpt lat="50.01735" lon="2.18843">
        <ele>120.3</ele>
        <time>2012-12-23T11:20:51Z</time>
      </trkpt>
      <trkpt lat="50.01723" lon="2.18835">
        <ele>121.5</ele>
        <time>2012-12-23T11:21:00Z</time>
      </trkpt>
      <trkpt lat="50.01709" lon="2.18826">
        <ele>118.4</ele>
        <time>2012-12-23T11:21:12Z</time>
      </trkpt>
      <trkpt lat="50.01696" lon="2.18818">
        <ele>117.3</ele>
        <time>2012-12-23T11:21:22Z</time>
      </trkpt>
      <trkpt lat="50.01684" lon="2.18808">
        <ele>116</ele>
        <time>2012-12-23T11:21:33Z</time>
      </trkpt>
      <trkpt lat="50.01671" lon="2.188">
        <ele>114.8</ele>
        <time>2012-12-23T11:21:42Z</time>
      </trkpt>
      <trkpt lat="50.01658" lon="2.18793">
        <ele>113.3</ele>
        <time>2012-12-23T11:21:55Z</time>
      </trkpt>
      <trkpt lat="50.01647" lon="2.1878">
        <ele>114.9</ele>
        <time>2012-12-23T11:22:04Z</time>
      </trkpt>
      <trkpt lat="50.01636" lon="2.18762">
        <ele>118.9</ele>
        <time>2012-12-23T11:22:15Z</time>
      </trkpt>
      <trkpt lat="50.01624" lon="2.18745">
        <ele>120.2</ele>
        <time>2012-12-23T11:22:28Z</time>
      </trkpt>
      <trkpt lat="50.01612" lon="2.18727">
        <ele>122.4</ele>
        <time>2012-12-23T11:22:40Z</time>
      </trkpt>
      <trkpt lat="50.01601" lon="2.18713">
        <ele>121.6</ele>
        <time>2012-12-23T11:22:50Z</time>
      </trkpt>
      <trkpt lat="50.0159" lon="2.187">
        <ele>120.6</ele>
        <time>2012-12-23T11:23:02Z</time>
      </trkpt>
      <trkpt lat="50.01586" lon="2.18701">
        <ele>120.1</ele>
        <time>2012-12-23T11:23:09Z</time>
      </trkpt>
      <trkpt lat="50.01576" lon="2.18719">
        <ele>119</ele>
        <time>2012-12-23T11:23:19Z</time>
      </trkpt>
      <trkpt lat="50.01571" lon="2.18742">
        <ele>117.1</ele>
        <time>2012-12-23T11:23:35Z</time>
      </trkpt>
      <trkpt lat="50.01564" lon="2.18763">
        <ele>116.6</ele>
        <time>2012-12-23T11:23:47Z</time>
      </trkpt>
      <trkpt lat="50.01555" lon="2.18781">
        <ele>120.9</ele>
        <time>2012-12-23T11:23:59Z</time>
      </trkpt>
      <trkpt lat="50.01546" lon="2.18801">
        <ele>122</ele>
        <time>2012-12-23T11:24:08Z</time>
      </trkpt>
      <trkpt lat="50.01537" lon="2.18821">
        <ele>116.3</ele>
        <time>2012-12-23T11:24:16Z</time>
      </trkpt>
      <trkpt lat="50.01527" lon="2.18841">
        <ele>113.8</ele>
        <time>2012-12-23T11:24:27Z</time>
      </trkpt>
      <trkpt lat="50.01518" lon="2.18859">
        <ele>111</ele>
        <time>2012-12-23T11:24:38Z</time>
      </trkpt>
      <trkpt lat="50.01515" lon="2.18881">
        <ele>107.4</ele>
        <time>2012-12-23T11:24:46Z</time>
      </trkpt>
      <trkpt lat="50.01515" lon="2.18904">
        <ele>109.7</ele>
        <time>2012-12-23T11:24:52Z</time>
      </trkpt>
      <trkpt lat="50.0151" lon="2.18923">
        <ele>112.7</ele>
        <time>2012-12-23T11:25:00Z</time>
      </trkpt>
      <trkpt lat="50.01498" lon="2.18937">
        <ele>115.4</ele>
        <time>2012-12-23T11:25:07Z</time>
      </trkpt>
      <trkpt lat="50.01488" lon="2.18951">
        <ele>115.8</ele>
        <time>2012-12-23T11:25:16Z</time>
      </trkpt>
      <trkpt lat="50.01477" lon="2.18966">
        <ele>114.8</ele>
        <time>2012-12-23T11:25:26Z</time>
      </trkpt>
      <trkpt lat="50.0147" lon="2.18984">
        <ele>116.6</ele>
        <time>2012-12-23T11:25:36Z</time>
      </trkpt>
      <trkpt lat="50.01463" lon="2.19004">
        <ele>118.6</ele>
        <time>2012-12-23T11:25:48Z</time>
      </trkpt>
      <trkpt lat="50.01461" lon="2.19026">
        <ele>112.3</ele>
        <time>2012-12-23T11:25:58Z</time>
      </trkpt>
      <trkpt lat="50.01458" lon="2.19048">
        <ele>108.2</ele>
        <time>2012-12-23T11:26:05Z</time>
      </trkpt>
      <trkpt lat="50.01454" lon="2.19068">
        <ele>111.3</ele>
        <time>2012-12-23T11:26:12Z</time>
      </trkpt>
      <trkpt lat="50.0145" lon="2.19089">
        <ele>115.9</ele>
        <time>2012-12-23T11:26:21Z</time>
      </trkpt>
      <trkpt lat="50.01447" lon="2.19114">
        <ele>117.9</ele>
        <time>2012-12-23T11:26:27Z</time>
      </trkpt>
      <trkpt lat="50.01446" lon="2.19137">
        <ele>115.5</ele>
        <time>2012-12-23T11:26:39Z</time>
      </trkpt>
      <trkpt lat="50.01438" lon="2.19155">
        <ele>113.2</ele>
        <time>2012-12-23T11:26:45Z</time>
      </trkpt>
      <trkpt lat="50.0143" lon="2.19172">
        <ele>110.1</ele>
        <time>2012-12-23T11:26:53Z</time>
      </trkpt>
      <trkpt lat="50.01423" lon="2.19191">
        <ele>107.5</ele>
        <time>2012-12-23T11:27:01Z</time>
      </trkpt>
      <trkpt lat="50.01421" lon="2.19213">
        <ele>104.7</ele>
        <time>2012-12-23T11:27:12Z</time>
      </trkpt>
      <trkpt lat="50.01412" lon="2.19231">
        <ele>114.1</ele>
        <time>2012-12-23T11:27:23Z</time>
      </trkpt>
      <trkpt lat="50.01399" lon="2.1924">
        <ele>110.9</ele>
        <time>2012-12-23T11:27:30Z</time>
      </trkpt>
      <trkpt lat="50.01387" lon="2.19252">
        <ele>113.6</ele>
        <time>2012-12-23T11:27:40Z</time>
      </trkpt>
      <trkpt lat="50.01376" lon="2.1927">
        <ele>116.5</ele>
        <time>2012-12-23T11:27:51Z</time>
      </trkpt>
      <trkpt lat="50.01369" lon="2.1929">
        <ele>118.3</ele>
        <time>2012-12-23T11:28:06Z</time>
      </trkpt>
      <trkpt lat="50.0137" lon="2.19313">
        <ele>113.5</ele>
        <time>2012-12-23T11:28:17Z</time>
      </trkpt>
      <trkpt lat="50.01374" lon="2.19334">
        <ele>109.9</ele>
        <time>2012-12-23T11:28:27Z</time>
      </trkpt>
      <trkpt lat="50.01383" lon="2.19357">
        <ele>110.9</ele>
        <time>2012-12-23T11:28:38Z</time>
      </trkpt>
      <trkpt lat="50.01388" lon="2.19376">
        <ele>115.7</ele>
        <time>2012-12-23T11:28:48Z</time>
      </trkpt>
      <trkpt lat="50.01395" lon="2.19395">
        <ele>121</ele>
        <time>2012-12-23T11:28:59Z</time>
      </trkpt>
      <trkpt lat="50.01402" lon="2.19407">
        <ele>118.9</ele>
        <time>2012-12-23T11:29:07Z</time>
      </trkpt>
      <trkpt lat="50.01391" lon="2.19422">
        <ele>109.1</ele>
        <time>2012-12-23T11:29:20Z</time>
      </trkpt>
      <trkpt lat="50.01378" lon="2.19432">
        <ele>110.2</ele>
        <time>2012-12-23T11:29:29Z</time>
      </trkpt>
      <trkpt lat="50.01367" lon="2.19447">
        <ele>111.9</ele>
        <time>2012-12-23T11:29:39Z</time>
      </trkpt>
      <trkpt lat="50.01357" lon="2.19454">
        <ele>107.8</ele>
        <time>2012-12-23T11:29:48Z</time>
      </trkpt>
      <trkpt lat="50.01347" lon="2.19471">
        <ele>106.5</ele>
        <time>2012-12-23T11:29:57Z</time>
      </trkpt>
      <trkpt lat="50.01336" lon="2.19486">
        <ele>110.9</ele>
        <time>2012-12-23T11:30:08Z</time>
      </trkpt>
      <trkpt lat="50.01322" lon="2.19481">
        <ele>114.2</ele>
        <time>2012-12-23T11:30:20Z</time>
      </trkpt>
      <trkpt lat="50.01311" lon="2.19468">
        <ele>117.5</ele>
        <time>2012-12-23T11:30:29Z</time>
      </trkpt>
      <trkpt lat="50.01297" lon="2.19461">
        <ele>118.6</ele>
        <time>2012-12-23T11:30:40Z</time>
      </trkpt>
      <trkpt lat="50.01288" lon="2.19478">
        <ele>115.9</ele>
        <time>2012-12-23T11:30:51Z</time>
      </trkpt>
      <trkpt lat="50.01277" lon="2.19491">
        <ele>115.8</ele>
        <time>2012-12-23T11:31:04Z</time>
      </trkpt>
      <trkpt lat="50.01265" lon="2.19504">
        <ele>109.3</ele>
        <time>2012-12-23T11:31:14Z</time>
      </trkpt>
      <trkpt lat="50.01253" lon="2.19512">
        <ele>107.2</ele>
        <time>2012-12-23T11:31:26Z</time>
      </trkpt>
      <trkpt lat="50.01246" lon="2.19512">
        <ele>102.5</ele>
        <time>2012-12-23T11:31:36Z</time>
      </trkpt>
      <trkpt lat="50.01236" lon="2.19531">
        <ele>102.2</ele>
        <time>2012-12-23T11:31:44Z</time>
      </trkpt>
      <trkpt lat="50.01231" lon="2.19542">
        <ele>104.2</ele>
        <time>2012-12-23T11:31:48Z</time>
      </trkpt>
      <trkpt lat="50.01216" lon="2.19542">
        <ele>107.2</ele>
        <time>2012-12-23T11:31:54Z</time>
      </trkpt>
      <trkpt lat="50.01202" lon="2.19542">
        <ele>111.7</ele>
        <time>2012-12-23T11:32:03Z</time>
      </trkpt>
      <trkpt lat="50.01189" lon="2.19551">
        <ele>118.1</ele>
        <time>2012-12-23T11:32:16Z</time>
      </trkpt>
      <trkpt lat="50.012" lon="2.19566">
        <ele>124.4</ele>
        <time>2012-12-23T11:32:42Z</time>
      </trkpt>
      <trkpt lat="50.012" lon="2.19566">
        <ele>124.4</ele>
        <time>2012-12-23T11:33:52Z</time>
      </trkpt>
      <trkpt lat="50.01204" lon="2.19561">
        <ele>126.7</ele>
        <time>2012-12-23T11:33:56Z</time>
      </trkpt>
    </trkseg>
  </trk>
</gpx>